<?xml version="1.0" encoding="UTF-8" standalone="no" ?>
<gpx xmlns="http://www.topografix.com/GPX/1/1" xmlns:xsi="http://www.w3.org/2001/XMLSchema-instance" xsi:schemaLocation="http://www.topografix.com/GPX/1/1 http://www.topografix.com/GPX/1/1/gpx.xsd" version="1.1" creator="VisuGPX - https://www.visugpx.com">
  <metadata>
    <name>rando vtt Pierre percée</name>
    <desc><![CDATA[superbe parcour]]></desc>
  </metadata>
  <trk>
    <name><![CDATA[(c) UtagawaVTT.com]]></name>
    <trkseg>
      <trkpt lat="48.46972" lon="6.9145">
        <ele>425.511993</ele>
        <time>2008-10-20T21:38:12Z</time>
      </trkpt>
      <trkpt lat="48.46972" lon="6.9145">
        <ele>425.662994</ele>
        <time>2008-10-20T21:38:12Z</time>
      </trkpt>
      <trkpt lat="48.46972" lon="6.9145">
        <ele>444.519012</ele>
        <time>2008-10-20T21:38:12Z</time>
      </trkpt>
      <trkpt lat="48.46972" lon="6.9145">
        <ele>444.516998</ele>
        <time>2008-10-20T21:38:12Z</time>
      </trkpt>
      <trkpt lat="48.46976" lon="6.91448">
        <ele>444.529999</ele>
        <time>2008-10-20T21:38:13Z</time>
      </trkpt>
      <trkpt lat="48.46992" lon="6.91411">
        <ele>443.937988</ele>
        <time>2008-10-20T21:38:24Z</time>
      </trkpt>
      <trkpt lat="48.46991" lon="6.91368">
        <ele>444.053986</ele>
        <time>2008-10-20T21:38:34Z</time>
      </trkpt>
      <trkpt lat="48.46994" lon="6.91318">
        <ele>444.161987</ele>
        <time>2008-10-20T21:38:46Z</time>
      </trkpt>
      <trkpt lat="48.46987" lon="6.91282">
        <ele>446.489014</ele>
        <time>2008-10-20T21:38:55Z</time>
      </trkpt>
      <trkpt lat="48.46986" lon="6.91244">
        <ele>446.592987</ele>
        <time>2008-10-20T21:39:04Z</time>
      </trkpt>
      <trkpt lat="48.46992" lon="6.91197">
        <ele>447.973999</ele>
        <time>2008-10-20T21:39:16Z</time>
      </trkpt>
      <trkpt lat="48.46996" lon="6.91167">
        <ele>448.015991</ele>
        <time>2008-10-20T21:39:23Z</time>
      </trkpt>
      <trkpt lat="48.46999" lon="6.91137">
        <ele>448.174011</ele>
        <time>2008-10-20T21:39:30Z</time>
      </trkpt>
      <trkpt lat="48.47" lon="6.91125">
        <ele>447.641998</ele>
        <time>2008-10-20T21:39:33Z</time>
      </trkpt>
      <trkpt lat="48.47001" lon="6.91125">
        <ele>447.598999</ele>
        <time>2008-10-20T21:39:33Z</time>
      </trkpt>
      <trkpt lat="48.47001" lon="6.91117">
        <ele>446.975006</ele>
        <time>2008-10-20T21:39:35Z</time>
      </trkpt>
      <trkpt lat="48.47002" lon="6.91102">
        <ele>446.39801</ele>
        <time>2008-10-20T21:39:38Z</time>
      </trkpt>
      <trkpt lat="48.47006" lon="6.91076">
        <ele>445.352997</ele>
        <time>2008-10-20T21:39:45Z</time>
      </trkpt>
      <trkpt lat="48.47006" lon="6.9106">
        <ele>445.408997</ele>
        <time>2008-10-20T21:39:49Z</time>
      </trkpt>
      <trkpt lat="48.47015" lon="6.91037">
        <ele>441.826996</ele>
        <time>2008-10-20T21:39:55Z</time>
      </trkpt>
      <trkpt lat="48.47018" lon="6.91032">
        <ele>440.68399</ele>
        <time>2008-10-20T21:39:57Z</time>
      </trkpt>
      <trkpt lat="48.4702" lon="6.91032">
        <ele>439.997009</ele>
        <time>2008-10-20T21:39:57Z</time>
      </trkpt>
      <trkpt lat="48.47035" lon="6.91019">
        <ele>437.061005</ele>
        <time>2008-10-20T21:40:03Z</time>
      </trkpt>
      <trkpt lat="48.47061" lon="6.90993">
        <ele>435.355988</ele>
        <time>2008-10-20T21:40:15Z</time>
      </trkpt>
      <trkpt lat="48.47064" lon="6.90967">
        <ele>436.144989</ele>
        <time>2008-10-20T21:40:21Z</time>
      </trkpt>
      <trkpt lat="48.47069" lon="6.90924">
        <ele>436.248993</ele>
        <time>2008-10-20T21:40:31Z</time>
      </trkpt>
      <trkpt lat="48.4708" lon="6.90907">
        <ele>436.100006</ele>
        <time>2008-10-20T21:40:37Z</time>
      </trkpt>
      <trkpt lat="48.47117" lon="6.90851">
        <ele>436.804993</ele>
        <time>2008-10-20T21:40:56Z</time>
      </trkpt>
      <trkpt lat="48.4715" lon="6.90788">
        <ele>439.64801</ele>
        <time>2008-10-20T21:41:15Z</time>
      </trkpt>
      <trkpt lat="48.47169" lon="6.90737">
        <ele>442.273987</ele>
        <time>2008-10-20T21:41:29Z</time>
      </trkpt>
      <trkpt lat="48.47193" lon="6.90678">
        <ele>446.358002</ele>
        <time>2008-10-20T21:41:45Z</time>
      </trkpt>
      <trkpt lat="48.47228" lon="6.90616">
        <ele>447.14801</ele>
        <time>2008-10-20T21:42:04Z</time>
      </trkpt>
      <trkpt lat="48.47273" lon="6.90538">
        <ele>443.774994</ele>
        <time>2008-10-20T21:42:29Z</time>
      </trkpt>
      <trkpt lat="48.47344" lon="6.90414">
        <ele>442.53299</ele>
        <time>2008-10-20T21:43:08Z</time>
      </trkpt>
      <trkpt lat="48.47376" lon="6.90347">
        <ele>445.860992</ele>
        <time>2008-10-20T21:43:28Z</time>
      </trkpt>
      <trkpt lat="48.47405" lon="6.90271">
        <ele>450.39801</ele>
        <time>2008-10-20T21:43:49Z</time>
      </trkpt>
      <trkpt lat="48.47427" lon="6.90216">
        <ele>450.829987</ele>
        <time>2008-10-20T21:44:04Z</time>
      </trkpt>
      <trkpt lat="48.47463" lon="6.90144">
        <ele>450.691986</ele>
        <time>2008-10-20T21:44:25Z</time>
      </trkpt>
      <trkpt lat="48.47492" lon="6.90097">
        <ele>448.895996</ele>
        <time>2008-10-20T21:44:41Z</time>
      </trkpt>
      <trkpt lat="48.47545" lon="6.90021">
        <ele>445.21701</ele>
        <time>2008-10-20T21:45:07Z</time>
      </trkpt>
      <trkpt lat="48.47621" lon="6.89948">
        <ele>441.988007</ele>
        <time>2008-10-20T21:45:39Z</time>
      </trkpt>
      <trkpt lat="48.47684" lon="6.89889">
        <ele>440.787994</ele>
        <time>2008-10-20T21:46:06Z</time>
      </trkpt>
      <trkpt lat="48.47689" lon="6.89883">
        <ele>440.595001</ele>
        <time>2008-10-20T21:46:08Z</time>
      </trkpt>
      <trkpt lat="48.47781" lon="6.89809">
        <ele>438.950989</ele>
        <time>2008-10-20T21:46:45Z</time>
      </trkpt>
      <trkpt lat="48.47815" lon="6.89778">
        <ele>437.407013</ele>
        <time>2008-10-20T21:47:00Z</time>
      </trkpt>
      <trkpt lat="48.47913" lon="6.89692">
        <ele>432.730988</ele>
        <time>2008-10-20T21:47:41Z</time>
      </trkpt>
      <trkpt lat="48.47956" lon="6.89662">
        <ele>430.739014</ele>
        <time>2008-10-20T21:47:57Z</time>
      </trkpt>
      <trkpt lat="48.47975" lon="6.89644">
        <ele>429.447998</ele>
        <time>2008-10-20T21:48:06Z</time>
      </trkpt>
      <trkpt lat="48.48053" lon="6.89567">
        <ele>424.199005</ele>
        <time>2008-10-20T21:48:39Z</time>
      </trkpt>
      <trkpt lat="48.48086" lon="6.89531">
        <ele>421.878998</ele>
        <time>2008-10-20T21:48:54Z</time>
      </trkpt>
      <trkpt lat="48.48116" lon="6.89503">
        <ele>419.25</ele>
        <time>2008-10-20T21:49:06Z</time>
      </trkpt>
      <trkpt lat="48.48129" lon="6.89493">
        <ele>418.704987</ele>
        <time>2008-10-20T21:49:11Z</time>
      </trkpt>
      <trkpt lat="48.48129" lon="6.89488">
        <ele>418.515991</ele>
        <time>2008-10-20T21:49:13Z</time>
      </trkpt>
      <trkpt lat="48.48132" lon="6.89456">
        <ele>417.046997</ele>
        <time>2008-10-20T21:49:20Z</time>
      </trkpt>
      <trkpt lat="48.48132" lon="6.89446">
        <ele>416.981995</ele>
        <time>2008-10-20T21:49:23Z</time>
      </trkpt>
      <trkpt lat="48.48138" lon="6.89443">
        <ele>416.727997</ele>
        <time>2008-10-20T21:49:25Z</time>
      </trkpt>
      <trkpt lat="48.48158" lon="6.89431">
        <ele>415.709991</ele>
        <time>2008-10-20T21:49:33Z</time>
      </trkpt>
      <trkpt lat="48.48166" lon="6.89413">
        <ele>415.260986</ele>
        <time>2008-10-20T21:49:38Z</time>
      </trkpt>
      <trkpt lat="48.48172" lon="6.89396">
        <ele>414.035004</ele>
        <time>2008-10-20T21:49:42Z</time>
      </trkpt>
      <trkpt lat="48.48186" lon="6.89371">
        <ele>412.678986</ele>
        <time>2008-10-20T21:49:50Z</time>
      </trkpt>
      <trkpt lat="48.48201" lon="6.89349">
        <ele>410.971008</ele>
        <time>2008-10-20T21:49:58Z</time>
      </trkpt>
      <trkpt lat="48.48213" lon="6.89331">
        <ele>409.701996</ele>
        <time>2008-10-20T21:50:04Z</time>
      </trkpt>
      <trkpt lat="48.48224" lon="6.89319">
        <ele>408.977997</ele>
        <time>2008-10-20T21:50:09Z</time>
      </trkpt>
      <trkpt lat="48.48242" lon="6.89294">
        <ele>407.218994</ele>
        <time>2008-10-20T21:50:17Z</time>
      </trkpt>
      <trkpt lat="48.4826" lon="6.89254">
        <ele>404.924988</ele>
        <time>2008-10-20T21:50:29Z</time>
      </trkpt>
      <trkpt lat="48.48268" lon="6.8923">
        <ele>403.565002</ele>
        <time>2008-10-20T21:50:35Z</time>
      </trkpt>
      <trkpt lat="48.48279" lon="6.89222">
        <ele>402.290009</ele>
        <time>2008-10-20T21:50:40Z</time>
      </trkpt>
      <trkpt lat="48.48307" lon="6.89213">
        <ele>399.130005</ele>
        <time>2008-10-20T21:50:50Z</time>
      </trkpt>
      <trkpt lat="48.48325" lon="6.8921">
        <ele>398.119995</ele>
        <time>2008-10-20T21:50:56Z</time>
      </trkpt>
      <trkpt lat="48.48338" lon="6.89212">
        <ele>396.791992</ele>
        <time>2008-10-20T21:51:01Z</time>
      </trkpt>
      <trkpt lat="48.48366" lon="6.892">
        <ele>395.096985</ele>
        <time>2008-10-20T21:51:12Z</time>
      </trkpt>
      <trkpt lat="48.48386" lon="6.89195">
        <ele>393.865997</ele>
        <time>2008-10-20T21:51:19Z</time>
      </trkpt>
      <trkpt lat="48.48416" lon="6.8919">
        <ele>391.881989</ele>
        <time>2008-10-20T21:51:30Z</time>
      </trkpt>
      <trkpt lat="48.48452" lon="6.89174">
        <ele>387.894989</ele>
        <time>2008-10-20T21:51:43Z</time>
      </trkpt>
      <trkpt lat="48.48484" lon="6.89159">
        <ele>384.390991</ele>
        <time>2008-10-20T21:51:55Z</time>
      </trkpt>
      <trkpt lat="48.48513" lon="6.89149">
        <ele>381.626007</ele>
        <time>2008-10-20T21:52:06Z</time>
      </trkpt>
      <trkpt lat="48.4852" lon="6.89153">
        <ele>380.726013</ele>
        <time>2008-10-20T21:52:09Z</time>
      </trkpt>
      <trkpt lat="48.48526" lon="6.8916">
        <ele>379.95401</ele>
        <time>2008-10-20T21:52:11Z</time>
      </trkpt>
      <trkpt lat="48.48546" lon="6.89202">
        <ele>372.81601</ele>
        <time>2008-10-20T21:52:23Z</time>
      </trkpt>
      <trkpt lat="48.4855" lon="6.89217">
        <ele>370.45401</ele>
        <time>2008-10-20T21:52:27Z</time>
      </trkpt>
      <trkpt lat="48.48555" lon="6.89236">
        <ele>368.733002</ele>
        <time>2008-10-20T21:52:32Z</time>
      </trkpt>
      <trkpt lat="48.48558" lon="6.89256">
        <ele>366.316986</ele>
        <time>2008-10-20T21:52:37Z</time>
      </trkpt>
      <trkpt lat="48.48558" lon="6.89261">
        <ele>365.778015</ele>
        <time>2008-10-20T21:52:38Z</time>
      </trkpt>
      <trkpt lat="48.48562" lon="6.89294">
        <ele>363.18399</ele>
        <time>2008-10-20T21:52:46Z</time>
      </trkpt>
      <trkpt lat="48.48585" lon="6.89312">
        <ele>363.243988</ele>
        <time>2008-10-20T21:52:55Z</time>
      </trkpt>
      <trkpt lat="48.48622" lon="6.89296">
        <ele>362.79599</ele>
        <time>2008-10-20T21:53:09Z</time>
      </trkpt>
      <trkpt lat="48.48658" lon="6.89271">
        <ele>362.696014</ele>
        <time>2008-10-20T21:53:23Z</time>
      </trkpt>
      <trkpt lat="48.48678" lon="6.89253">
        <ele>362.108002</ele>
        <time>2008-10-20T21:53:32Z</time>
      </trkpt>
      <trkpt lat="48.48698" lon="6.89235">
        <ele>362.037994</ele>
        <time>2008-10-20T21:53:40Z</time>
      </trkpt>
      <trkpt lat="48.48731" lon="6.89216">
        <ele>361.498993</ele>
        <time>2008-10-20T21:53:53Z</time>
      </trkpt>
      <trkpt lat="48.48747" lon="6.89207">
        <ele>360.921997</ele>
        <time>2008-10-20T21:53:59Z</time>
      </trkpt>
      <trkpt lat="48.48807" lon="6.89178">
        <ele>357.30899</ele>
        <time>2008-10-20T21:54:22Z</time>
      </trkpt>
      <trkpt lat="48.48848" lon="6.89169">
        <ele>356.70401</ele>
        <time>2008-10-20T21:54:37Z</time>
      </trkpt>
      <trkpt lat="48.48867" lon="6.89162">
        <ele>356.291992</ele>
        <time>2008-10-20T21:54:44Z</time>
      </trkpt>
      <trkpt lat="48.48892" lon="6.89156">
        <ele>355.908997</ele>
        <time>2008-10-20T21:54:53Z</time>
      </trkpt>
      <trkpt lat="48.48924" lon="6.89145">
        <ele>354.783997</ele>
        <time>2008-10-20T21:55:04Z</time>
      </trkpt>
      <trkpt lat="48.48952" lon="6.89131">
        <ele>353.759003</ele>
        <time>2008-10-20T21:55:15Z</time>
      </trkpt>
      <trkpt lat="48.48992" lon="6.89116">
        <ele>353.276001</ele>
        <time>2008-10-20T21:55:30Z</time>
      </trkpt>
      <trkpt lat="48.49021" lon="6.89105">
        <ele>352.984009</ele>
        <time>2008-10-20T21:55:41Z</time>
      </trkpt>
      <trkpt lat="48.49035" lon="6.89098">
        <ele>352.923004</ele>
        <time>2008-10-20T21:55:46Z</time>
      </trkpt>
      <trkpt lat="48.49052" lon="6.89087">
        <ele>352.785004</ele>
        <time>2008-10-20T21:55:52Z</time>
      </trkpt>
      <trkpt lat="48.49102" lon="6.89083">
        <ele>352.942993</ele>
        <time>2008-10-20T21:56:10Z</time>
      </trkpt>
      <trkpt lat="48.49109" lon="6.89084">
        <ele>352.553009</ele>
        <time>2008-10-20T21:56:13Z</time>
      </trkpt>
      <trkpt lat="48.4912" lon="6.89083">
        <ele>352.264008</ele>
        <time>2008-10-20T21:56:17Z</time>
      </trkpt>
      <trkpt lat="48.49138" lon="6.89084">
        <ele>350.768005</ele>
        <time>2008-10-20T21:56:23Z</time>
      </trkpt>
      <trkpt lat="48.49176" lon="6.89081">
        <ele>348.753998</ele>
        <time>2008-10-20T21:56:37Z</time>
      </trkpt>
      <trkpt lat="48.49194" lon="6.89078">
        <ele>347.665985</ele>
        <time>2008-10-20T21:56:43Z</time>
      </trkpt>
      <trkpt lat="48.49217" lon="6.89072">
        <ele>346.065002</ele>
        <time>2008-10-20T21:56:52Z</time>
      </trkpt>
      <trkpt lat="48.49255" lon="6.89082">
        <ele>344.194</ele>
        <time>2008-10-20T21:57:06Z</time>
      </trkpt>
      <trkpt lat="48.49277" lon="6.89099">
        <ele>342.721985</ele>
        <time>2008-10-20T21:57:15Z</time>
      </trkpt>
      <trkpt lat="48.49352" lon="6.89138">
        <ele>339.053009</ele>
        <time>2008-10-20T21:57:43Z</time>
      </trkpt>
      <trkpt lat="48.49369" lon="6.89149">
        <ele>338.640015</ele>
        <time>2008-10-20T21:57:50Z</time>
      </trkpt>
      <trkpt lat="48.494" lon="6.89181">
        <ele>337.506989</ele>
        <time>2008-10-20T21:58:03Z</time>
      </trkpt>
      <trkpt lat="48.4949" lon="6.89249">
        <ele>333.903015</ele>
        <time>2008-10-20T21:58:39Z</time>
      </trkpt>
      <trkpt lat="48.49572" lon="6.89334">
        <ele>330.505005</ele>
        <time>2008-10-20T21:59:15Z</time>
      </trkpt>
      <trkpt lat="48.49576" lon="6.89339">
        <ele>330.045013</ele>
        <time>2008-10-20T21:59:17Z</time>
      </trkpt>
      <trkpt lat="48.49571" lon="6.89354">
        <ele>331.06601</ele>
        <time>2008-10-20T21:59:21Z</time>
      </trkpt>
      <trkpt lat="48.49541" lon="6.89376">
        <ele>333.880005</ele>
        <time>2008-10-20T21:59:33Z</time>
      </trkpt>
      <trkpt lat="48.4952" lon="6.89387">
        <ele>336.876007</ele>
        <time>2008-10-20T21:59:41Z</time>
      </trkpt>
      <trkpt lat="48.49499" lon="6.89398">
        <ele>340.46701</ele>
        <time>2008-10-20T21:59:49Z</time>
      </trkpt>
      <trkpt lat="48.49468" lon="6.89401">
        <ele>342.346985</ele>
        <time>2008-10-20T22:00:00Z</time>
      </trkpt>
      <trkpt lat="48.49445" lon="6.89396">
        <ele>345.062012</ele>
        <time>2008-10-20T22:00:08Z</time>
      </trkpt>
      <trkpt lat="48.49444" lon="6.89395">
        <ele>345.397003</ele>
        <time>2008-10-20T22:00:09Z</time>
      </trkpt>
      <trkpt lat="48.49415" lon="6.89388">
        <ele>349.694</ele>
        <time>2008-10-20T22:00:19Z</time>
      </trkpt>
      <trkpt lat="48.49389" lon="6.89395">
        <ele>352.5</ele>
        <time>2008-10-20T22:00:29Z</time>
      </trkpt>
      <trkpt lat="48.49356" lon="6.89399">
        <ele>355.085999</ele>
        <time>2008-10-20T22:00:40Z</time>
      </trkpt>
      <trkpt lat="48.49328" lon="6.89408">
        <ele>357.523987</ele>
        <time>2008-10-20T22:00:51Z</time>
      </trkpt>
      <trkpt lat="48.49304" lon="6.89425">
        <ele>359.233002</ele>
        <time>2008-10-20T22:01:00Z</time>
      </trkpt>
      <trkpt lat="48.49279" lon="6.89447">
        <ele>361.679993</ele>
        <time>2008-10-20T22:01:11Z</time>
      </trkpt>
      <trkpt lat="48.49256" lon="6.89466">
        <ele>362.915009</ele>
        <time>2008-10-20T22:01:20Z</time>
      </trkpt>
      <trkpt lat="48.49239" lon="6.89479">
        <ele>364.585999</ele>
        <time>2008-10-20T22:01:27Z</time>
      </trkpt>
      <trkpt lat="48.49236" lon="6.89503">
        <ele>365.022003</ele>
        <time>2008-10-20T22:01:33Z</time>
      </trkpt>
      <trkpt lat="48.4924" lon="6.89534">
        <ele>365.447998</ele>
        <time>2008-10-20T22:01:40Z</time>
      </trkpt>
      <trkpt lat="48.49246" lon="6.89568">
        <ele>365.44101</ele>
        <time>2008-10-20T22:01:48Z</time>
      </trkpt>
      <trkpt lat="48.49233" lon="6.89578">
        <ele>365.34201</ele>
        <time>2008-10-20T22:01:54Z</time>
      </trkpt>
      <trkpt lat="48.49182" lon="6.89581">
        <ele>366.595001</ele>
        <time>2008-10-20T22:02:12Z</time>
      </trkpt>
      <trkpt lat="48.49131" lon="6.89597">
        <ele>367.914001</ele>
        <time>2008-10-20T22:02:31Z</time>
      </trkpt>
      <trkpt lat="48.49085" lon="6.89612">
        <ele>369.587006</ele>
        <time>2008-10-20T22:02:48Z</time>
      </trkpt>
      <trkpt lat="48.49058" lon="6.89639">
        <ele>371.384003</ele>
        <time>2008-10-20T22:02:59Z</time>
      </trkpt>
      <trkpt lat="48.49053" lon="6.8965">
        <ele>371.959991</ele>
        <time>2008-10-20T22:03:02Z</time>
      </trkpt>
      <trkpt lat="48.49038" lon="6.89641">
        <ele>372.778992</ele>
        <time>2008-10-20T22:03:08Z</time>
      </trkpt>
      <trkpt lat="48.48996" lon="6.89624">
        <ele>374.579987</ele>
        <time>2008-10-20T22:03:24Z</time>
      </trkpt>
      <trkpt lat="48.48954" lon="6.8961">
        <ele>376.635986</ele>
        <time>2008-10-20T22:03:39Z</time>
      </trkpt>
      <trkpt lat="48.48916" lon="6.89599">
        <ele>377.876007</ele>
        <time>2008-10-20T22:03:53Z</time>
      </trkpt>
      <trkpt lat="48.48907" lon="6.89612">
        <ele>378.917999</ele>
        <time>2008-10-20T22:03:57Z</time>
      </trkpt>
      <trkpt lat="48.48888" lon="6.89651">
        <ele>383.032013</ele>
        <time>2008-10-20T22:04:09Z</time>
      </trkpt>
      <trkpt lat="48.48865" lon="6.89684">
        <ele>386.299011</ele>
        <time>2008-10-20T22:04:20Z</time>
      </trkpt>
      <trkpt lat="48.48844" lon="6.89707">
        <ele>388.582001</ele>
        <time>2008-10-20T22:04:30Z</time>
      </trkpt>
      <trkpt lat="48.48811" lon="6.89749">
        <ele>393.214996</ele>
        <time>2008-10-20T22:04:45Z</time>
      </trkpt>
      <trkpt lat="48.4878" lon="6.89785">
        <ele>396.787994</ele>
        <time>2008-10-20T22:04:59Z</time>
      </trkpt>
      <trkpt lat="48.48747" lon="6.89821">
        <ele>397.612</ele>
        <time>2008-10-20T22:05:14Z</time>
      </trkpt>
      <trkpt lat="48.48721" lon="6.89847">
        <ele>398.026001</ele>
        <time>2008-10-20T22:05:25Z</time>
      </trkpt>
      <trkpt lat="48.48713" lon="6.89859">
        <ele>398.471008</ele>
        <time>2008-10-20T22:05:29Z</time>
      </trkpt>
      <trkpt lat="48.48681" lon="6.89889">
        <ele>399.541992</ele>
        <time>2008-10-20T22:05:43Z</time>
      </trkpt>
      <trkpt lat="48.4864" lon="6.89932">
        <ele>401.526001</ele>
        <time>2008-10-20T22:06:00Z</time>
      </trkpt>
      <trkpt lat="48.48615" lon="6.89956">
        <ele>403.798004</ele>
        <time>2008-10-20T22:06:11Z</time>
      </trkpt>
      <trkpt lat="48.48592" lon="6.89984">
        <ele>407.114014</ele>
        <time>2008-10-20T22:06:22Z</time>
      </trkpt>
      <trkpt lat="48.48569" lon="6.90018">
        <ele>410.480988</ele>
        <time>2008-10-20T22:06:33Z</time>
      </trkpt>
      <trkpt lat="48.48546" lon="6.90049">
        <ele>413.648987</ele>
        <time>2008-10-20T22:06:44Z</time>
      </trkpt>
      <trkpt lat="48.48525" lon="6.90079">
        <ele>415.764008</ele>
        <time>2008-10-20T22:06:55Z</time>
      </trkpt>
      <trkpt lat="48.48505" lon="6.90112">
        <ele>419.02301</ele>
        <time>2008-10-20T22:07:05Z</time>
      </trkpt>
      <trkpt lat="48.48488" lon="6.90134">
        <ele>420.65799</ele>
        <time>2008-10-20T22:07:13Z</time>
      </trkpt>
      <trkpt lat="48.48465" lon="6.90157">
        <ele>422.458008</ele>
        <time>2008-10-20T22:07:23Z</time>
      </trkpt>
      <trkpt lat="48.48435" lon="6.90179">
        <ele>424.571014</ele>
        <time>2008-10-20T22:07:35Z</time>
      </trkpt>
      <trkpt lat="48.484" lon="6.90211">
        <ele>427.22699</ele>
        <time>2008-10-20T22:07:50Z</time>
      </trkpt>
      <trkpt lat="48.48373" lon="6.90239">
        <ele>429.506012</ele>
        <time>2008-10-20T22:08:01Z</time>
      </trkpt>
      <trkpt lat="48.48343" lon="6.90274">
        <ele>432.21701</ele>
        <time>2008-10-20T22:08:15Z</time>
      </trkpt>
      <trkpt lat="48.48312" lon="6.90307">
        <ele>433.492004</ele>
        <time>2008-10-20T22:08:29Z</time>
      </trkpt>
      <trkpt lat="48.48288" lon="6.90327">
        <ele>432.429993</ele>
        <time>2008-10-20T22:08:39Z</time>
      </trkpt>
      <trkpt lat="48.48273" lon="6.90339">
        <ele>430.540985</ele>
        <time>2008-10-20T22:08:45Z</time>
      </trkpt>
      <trkpt lat="48.48257" lon="6.90352">
        <ele>429.213989</ele>
        <time>2008-10-20T22:08:51Z</time>
      </trkpt>
      <trkpt lat="48.48194" lon="6.90401">
        <ele>425.546997</ele>
        <time>2008-10-20T22:09:17Z</time>
      </trkpt>
      <trkpt lat="48.48132" lon="6.90454">
        <ele>419.403992</ele>
        <time>2008-10-20T22:09:42Z</time>
      </trkpt>
      <trkpt lat="48.48114" lon="6.90461">
        <ele>417.386993</ele>
        <time>2008-10-20T22:09:49Z</time>
      </trkpt>
      <trkpt lat="48.48114" lon="6.90463">
        <ele>417.022003</ele>
        <time>2008-10-20T22:09:50Z</time>
      </trkpt>
      <trkpt lat="48.48121" lon="6.90459">
        <ele>417.678986</ele>
        <time>2008-10-20T22:09:52Z</time>
      </trkpt>
      <trkpt lat="48.48129" lon="6.90455">
        <ele>418.322998</ele>
        <time>2008-10-20T22:09:55Z</time>
      </trkpt>
      <trkpt lat="48.48138" lon="6.90467">
        <ele>418.290985</ele>
        <time>2008-10-20T22:10:00Z</time>
      </trkpt>
      <trkpt lat="48.4815" lon="6.90508">
        <ele>416.515015</ele>
        <time>2008-10-20T22:10:10Z</time>
      </trkpt>
      <trkpt lat="48.48152" lon="6.90553">
        <ele>415.114014</ele>
        <time>2008-10-20T22:10:21Z</time>
      </trkpt>
      <trkpt lat="48.48145" lon="6.90598">
        <ele>414.165985</ele>
        <time>2008-10-20T22:10:32Z</time>
      </trkpt>
      <trkpt lat="48.48148" lon="6.90649">
        <ele>414.82901</ele>
        <time>2008-10-20T22:10:44Z</time>
      </trkpt>
      <trkpt lat="48.48161" lon="6.90697">
        <ele>412.960999</ele>
        <time>2008-10-20T22:10:56Z</time>
      </trkpt>
      <trkpt lat="48.48167" lon="6.90709">
        <ele>411.282013</ele>
        <time>2008-10-20T22:11:00Z</time>
      </trkpt>
      <trkpt lat="48.48193" lon="6.90708">
        <ele>405.832001</ele>
        <time>2008-10-20T22:11:09Z</time>
      </trkpt>
      <trkpt lat="48.48196" lon="6.90704">
        <ele>404.812012</ele>
        <time>2008-10-20T22:11:11Z</time>
      </trkpt>
      <trkpt lat="48.48202" lon="6.90699">
        <ele>402.782013</ele>
        <time>2008-10-20T22:11:13Z</time>
      </trkpt>
      <trkpt lat="48.48216" lon="6.90659">
        <ele>399.412994</ele>
        <time>2008-10-20T22:11:24Z</time>
      </trkpt>
      <trkpt lat="48.48217" lon="6.90653">
        <ele>399.026001</ele>
        <time>2008-10-20T22:11:25Z</time>
      </trkpt>
      <trkpt lat="48.48224" lon="6.90627">
        <ele>398.222992</ele>
        <time>2008-10-20T22:11:32Z</time>
      </trkpt>
      <trkpt lat="48.48231" lon="6.90605">
        <ele>397.472992</ele>
        <time>2008-10-20T22:11:38Z</time>
      </trkpt>
      <trkpt lat="48.48246" lon="6.90606">
        <ele>395.880005</ele>
        <time>2008-10-20T22:11:44Z</time>
      </trkpt>
      <trkpt lat="48.48263" lon="6.90599">
        <ele>396.45401</ele>
        <time>2008-10-20T22:11:50Z</time>
      </trkpt>
      <trkpt lat="48.48278" lon="6.90577">
        <ele>397.571014</ele>
        <time>2008-10-20T22:11:57Z</time>
      </trkpt>
      <trkpt lat="48.48288" lon="6.90573">
        <ele>398.618988</ele>
        <time>2008-10-20T22:12:01Z</time>
      </trkpt>
      <trkpt lat="48.48306" lon="6.90594">
        <ele>400.506989</ele>
        <time>2008-10-20T22:12:09Z</time>
      </trkpt>
      <trkpt lat="48.48319" lon="6.90611">
        <ele>401.737</ele>
        <time>2008-10-20T22:12:15Z</time>
      </trkpt>
      <trkpt lat="48.48338" lon="6.90638">
        <ele>403.065002</ele>
        <time>2008-10-20T22:12:25Z</time>
      </trkpt>
      <trkpt lat="48.4836" lon="6.90669">
        <ele>404.27301</ele>
        <time>2008-10-20T22:12:36Z</time>
      </trkpt>
      <trkpt lat="48.48381" lon="6.907">
        <ele>405.295013</ele>
        <time>2008-10-20T22:12:46Z</time>
      </trkpt>
      <trkpt lat="48.48394" lon="6.90722">
        <ele>405.845001</ele>
        <time>2008-10-20T22:12:53Z</time>
      </trkpt>
      <trkpt lat="48.48412" lon="6.9076">
        <ele>406.440002</ele>
        <time>2008-10-20T22:13:04Z</time>
      </trkpt>
      <trkpt lat="48.48427" lon="6.90796">
        <ele>407.03299</ele>
        <time>2008-10-20T22:13:14Z</time>
      </trkpt>
      <trkpt lat="48.48447" lon="6.90832">
        <ele>407.977997</ele>
        <time>2008-10-20T22:13:26Z</time>
      </trkpt>
      <trkpt lat="48.4845" lon="6.90848">
        <ele>407.506989</ele>
        <time>2008-10-20T22:13:29Z</time>
      </trkpt>
      <trkpt lat="48.48459" lon="6.90868">
        <ele>407.713989</ele>
        <time>2008-10-20T22:13:35Z</time>
      </trkpt>
      <trkpt lat="48.48468" lon="6.90909">
        <ele>407.958008</ele>
        <time>2008-10-20T22:13:45Z</time>
      </trkpt>
      <trkpt lat="48.48454" lon="6.90918">
        <ele>406.041992</ele>
        <time>2008-10-20T22:13:51Z</time>
      </trkpt>
      <trkpt lat="48.48433" lon="6.90904">
        <ele>403.520996</ele>
        <time>2008-10-20T22:13:59Z</time>
      </trkpt>
      <trkpt lat="48.48412" lon="6.90895">
        <ele>401.92099</ele>
        <time>2008-10-20T22:14:07Z</time>
      </trkpt>
      <trkpt lat="48.48393" lon="6.90898">
        <ele>400.302002</ele>
        <time>2008-10-20T22:14:14Z</time>
      </trkpt>
      <trkpt lat="48.48375" lon="6.90917">
        <ele>401.281006</ele>
        <time>2008-10-20T22:14:22Z</time>
      </trkpt>
      <trkpt lat="48.48366" lon="6.90949">
        <ele>402.765015</ele>
        <time>2008-10-20T22:14:30Z</time>
      </trkpt>
      <trkpt lat="48.48346" lon="6.90989">
        <ele>402.803009</ele>
        <time>2008-10-20T22:14:42Z</time>
      </trkpt>
      <trkpt lat="48.48337" lon="6.91004">
        <ele>403.105011</ele>
        <time>2008-10-20T22:14:47Z</time>
      </trkpt>
      <trkpt lat="48.48324" lon="6.91046">
        <ele>402.575012</ele>
        <time>2008-10-20T22:14:58Z</time>
      </trkpt>
      <trkpt lat="48.4831" lon="6.91037">
        <ele>400.455994</ele>
        <time>2008-10-20T22:15:03Z</time>
      </trkpt>
      <trkpt lat="48.48293" lon="6.91035">
        <ele>398.690002</ele>
        <time>2008-10-20T22:15:09Z</time>
      </trkpt>
      <trkpt lat="48.48283" lon="6.91044">
        <ele>398.089996</ele>
        <time>2008-10-20T22:15:14Z</time>
      </trkpt>
      <trkpt lat="48.48257" lon="6.91091">
        <ele>401.868011</ele>
        <time>2008-10-20T22:15:28Z</time>
      </trkpt>
      <trkpt lat="48.48256" lon="6.91093">
        <ele>401.891998</ele>
        <time>2008-10-20T22:15:29Z</time>
      </trkpt>
      <trkpt lat="48.48239" lon="6.91084">
        <ele>400.683014</ele>
        <time>2008-10-20T22:15:35Z</time>
      </trkpt>
      <trkpt lat="48.48207" lon="6.91071">
        <ele>398.138</ele>
        <time>2008-10-20T22:15:47Z</time>
      </trkpt>
      <trkpt lat="48.48196" lon="6.91066">
        <ele>396.675995</ele>
        <time>2008-10-20T22:15:51Z</time>
      </trkpt>
      <trkpt lat="48.4818" lon="6.91073">
        <ele>396.263</ele>
        <time>2008-10-20T22:15:57Z</time>
      </trkpt>
      <trkpt lat="48.4817" lon="6.91084">
        <ele>397.835999</ele>
        <time>2008-10-20T22:16:02Z</time>
      </trkpt>
      <trkpt lat="48.48167" lon="6.91089">
        <ele>398.565002</ele>
        <time>2008-10-20T22:16:03Z</time>
      </trkpt>
      <trkpt lat="48.4816" lon="6.91096">
        <ele>399.06601</ele>
        <time>2008-10-20T22:16:06Z</time>
      </trkpt>
      <trkpt lat="48.4814" lon="6.91124">
        <ele>401.993011</ele>
        <time>2008-10-20T22:16:16Z</time>
      </trkpt>
      <trkpt lat="48.4813" lon="6.91146">
        <ele>403.31601</ele>
        <time>2008-10-20T22:16:22Z</time>
      </trkpt>
      <trkpt lat="48.4813" lon="6.9115">
        <ele>403.524994</ele>
        <time>2008-10-20T22:16:23Z</time>
      </trkpt>
      <trkpt lat="48.48126" lon="6.91171">
        <ele>404.891998</ele>
        <time>2008-10-20T22:16:29Z</time>
      </trkpt>
      <trkpt lat="48.48119" lon="6.9119">
        <ele>405.779999</ele>
        <time>2008-10-20T22:16:34Z</time>
      </trkpt>
      <trkpt lat="48.48107" lon="6.9124">
        <ele>408.057007</ele>
        <time>2008-10-20T22:16:46Z</time>
      </trkpt>
      <trkpt lat="48.48103" lon="6.91253">
        <ele>408.321014</ele>
        <time>2008-10-20T22:16:50Z</time>
      </trkpt>
      <trkpt lat="48.48112" lon="6.91296">
        <ele>408.903992</ele>
        <time>2008-10-20T22:17:00Z</time>
      </trkpt>
      <trkpt lat="48.48138" lon="6.91302">
        <ele>411.096985</ele>
        <time>2008-10-20T22:17:10Z</time>
      </trkpt>
      <trkpt lat="48.48163" lon="6.91324">
        <ele>412.15799</ele>
        <time>2008-10-20T22:17:20Z</time>
      </trkpt>
      <trkpt lat="48.48171" lon="6.91335">
        <ele>411.93399</ele>
        <time>2008-10-20T22:17:24Z</time>
      </trkpt>
      <trkpt lat="48.48185" lon="6.9135">
        <ele>412.737</ele>
        <time>2008-10-20T22:17:31Z</time>
      </trkpt>
      <trkpt lat="48.48214" lon="6.91368">
        <ele>412.998993</ele>
        <time>2008-10-20T22:17:42Z</time>
      </trkpt>
      <trkpt lat="48.48228" lon="6.91369">
        <ele>413.009003</ele>
        <time>2008-10-20T22:17:47Z</time>
      </trkpt>
      <trkpt lat="48.48245" lon="6.91363">
        <ele>414.082001</ele>
        <time>2008-10-20T22:17:53Z</time>
      </trkpt>
      <trkpt lat="48.48261" lon="6.91372">
        <ele>414.648987</ele>
        <time>2008-10-20T22:17:59Z</time>
      </trkpt>
      <trkpt lat="48.48294" lon="6.91387">
        <ele>415.450989</ele>
        <time>2008-10-20T22:18:12Z</time>
      </trkpt>
      <trkpt lat="48.48325" lon="6.91392">
        <ele>417.256989</ele>
        <time>2008-10-20T22:18:23Z</time>
      </trkpt>
      <trkpt lat="48.48356" lon="6.91392">
        <ele>419.221985</ele>
        <time>2008-10-20T22:18:34Z</time>
      </trkpt>
      <trkpt lat="48.48359" lon="6.91392">
        <ele>419.140991</ele>
        <time>2008-10-20T22:18:35Z</time>
      </trkpt>
      <trkpt lat="48.48383" lon="6.914">
        <ele>419.653992</ele>
        <time>2008-10-20T22:18:44Z</time>
      </trkpt>
      <trkpt lat="48.48386" lon="6.91405">
        <ele>419.725006</ele>
        <time>2008-10-20T22:18:45Z</time>
      </trkpt>
      <trkpt lat="48.4839" lon="6.91425">
        <ele>419.535004</ele>
        <time>2008-10-20T22:18:51Z</time>
      </trkpt>
      <trkpt lat="48.48376" lon="6.91458">
        <ele>415.881012</ele>
        <time>2008-10-20T22:19:00Z</time>
      </trkpt>
      <trkpt lat="48.48373" lon="6.91468">
        <ele>414.70401</ele>
        <time>2008-10-20T22:19:02Z</time>
      </trkpt>
      <trkpt lat="48.48371" lon="6.9147">
        <ele>413.812988</ele>
        <time>2008-10-20T22:19:03Z</time>
      </trkpt>
      <trkpt lat="48.48373" lon="6.9148">
        <ele>412.563995</ele>
        <time>2008-10-20T22:19:06Z</time>
      </trkpt>
      <trkpt lat="48.48375" lon="6.91487">
        <ele>411.506012</ele>
        <time>2008-10-20T22:19:07Z</time>
      </trkpt>
      <trkpt lat="48.48375" lon="6.91501">
        <ele>410.050995</ele>
        <time>2008-10-20T22:19:11Z</time>
      </trkpt>
      <trkpt lat="48.48373" lon="6.91525">
        <ele>409.531006</ele>
        <time>2008-10-20T22:19:16Z</time>
      </trkpt>
      <trkpt lat="48.48366" lon="6.91533">
        <ele>407.532013</ele>
        <time>2008-10-20T22:19:20Z</time>
      </trkpt>
      <trkpt lat="48.48323" lon="6.91544">
        <ele>407.457001</ele>
        <time>2008-10-20T22:19:35Z</time>
      </trkpt>
      <trkpt lat="48.48312" lon="6.91581">
        <ele>411.408997</ele>
        <time>2008-10-20T22:19:45Z</time>
      </trkpt>
      <trkpt lat="48.48322" lon="6.91626">
        <ele>414.718994</ele>
        <time>2008-10-20T22:19:56Z</time>
      </trkpt>
      <trkpt lat="48.48321" lon="6.9166">
        <ele>415.824005</ele>
        <time>2008-10-20T22:20:05Z</time>
      </trkpt>
      <trkpt lat="48.48327" lon="6.91676">
        <ele>416.51001</ele>
        <time>2008-10-20T22:20:09Z</time>
      </trkpt>
      <trkpt lat="48.48332" lon="6.9169">
        <ele>416.790985</ele>
        <time>2008-10-20T22:20:13Z</time>
      </trkpt>
      <trkpt lat="48.48334" lon="6.91698">
        <ele>416.817993</ele>
        <time>2008-10-20T22:20:15Z</time>
      </trkpt>
      <trkpt lat="48.48348" lon="6.91712">
        <ele>417.601013</ele>
        <time>2008-10-20T22:20:21Z</time>
      </trkpt>
      <trkpt lat="48.48372" lon="6.91738">
        <ele>418.498993</ele>
        <time>2008-10-20T22:20:31Z</time>
      </trkpt>
      <trkpt lat="48.48379" lon="6.91744">
        <ele>418.850006</ele>
        <time>2008-10-20T22:20:34Z</time>
      </trkpt>
      <trkpt lat="48.48369" lon="6.91758">
        <ele>418.532013</ele>
        <time>2008-10-20T22:20:39Z</time>
      </trkpt>
      <trkpt lat="48.48352" lon="6.91762">
        <ele>416.226013</ele>
        <time>2008-10-20T22:20:45Z</time>
      </trkpt>
      <trkpt lat="48.48346" lon="6.9177">
        <ele>414.726013</ele>
        <time>2008-10-20T22:20:48Z</time>
      </trkpt>
      <trkpt lat="48.4834" lon="6.91779">
        <ele>412.580994</ele>
        <time>2008-10-20T22:20:51Z</time>
      </trkpt>
      <trkpt lat="48.48336" lon="6.91784">
        <ele>411.220001</ele>
        <time>2008-10-20T22:20:53Z</time>
      </trkpt>
      <trkpt lat="48.48328" lon="6.91795">
        <ele>407.213013</ele>
        <time>2008-10-20T22:20:56Z</time>
      </trkpt>
      <trkpt lat="48.48319" lon="6.91817">
        <ele>399.782013</ele>
        <time>2008-10-20T22:21:03Z</time>
      </trkpt>
      <trkpt lat="48.48308" lon="6.91832">
        <ele>395.106995</ele>
        <time>2008-10-20T22:21:08Z</time>
      </trkpt>
      <trkpt lat="48.48307" lon="6.91834">
        <ele>393.931</ele>
        <time>2008-10-20T22:21:09Z</time>
      </trkpt>
      <trkpt lat="48.48311" lon="6.91851">
        <ele>394.411011</ele>
        <time>2008-10-20T22:21:13Z</time>
      </trkpt>
      <trkpt lat="48.48311" lon="6.91865">
        <ele>393.17099</ele>
        <time>2008-10-20T22:21:16Z</time>
      </trkpt>
      <trkpt lat="48.48333" lon="6.91901">
        <ele>394.118988</ele>
        <time>2008-10-20T22:21:28Z</time>
      </trkpt>
      <trkpt lat="48.48355" lon="6.91928">
        <ele>396.023987</ele>
        <time>2008-10-20T22:21:38Z</time>
      </trkpt>
      <trkpt lat="48.48381" lon="6.91971">
        <ele>397.425995</ele>
        <time>2008-10-20T22:21:52Z</time>
      </trkpt>
      <trkpt lat="48.48407" lon="6.92013">
        <ele>399.990997</ele>
        <time>2008-10-20T22:22:05Z</time>
      </trkpt>
      <trkpt lat="48.48433" lon="6.92046">
        <ele>402.145996</ele>
        <time>2008-10-20T22:22:18Z</time>
      </trkpt>
      <trkpt lat="48.48455" lon="6.92087">
        <ele>404.118988</ele>
        <time>2008-10-20T22:22:30Z</time>
      </trkpt>
      <trkpt lat="48.48473" lon="6.92125">
        <ele>406.80899</ele>
        <time>2008-10-20T22:22:41Z</time>
      </trkpt>
      <trkpt lat="48.48484" lon="6.92156">
        <ele>407.665009</ele>
        <time>2008-10-20T22:22:50Z</time>
      </trkpt>
      <trkpt lat="48.48506" lon="6.92169">
        <ele>410.134003</ele>
        <time>2008-10-20T22:22:58Z</time>
      </trkpt>
      <trkpt lat="48.48509" lon="6.92171">
        <ele>410.638</ele>
        <time>2008-10-20T22:22:59Z</time>
      </trkpt>
      <trkpt lat="48.48528" lon="6.92173">
        <ele>411.283997</ele>
        <time>2008-10-20T22:23:06Z</time>
      </trkpt>
      <trkpt lat="48.48533" lon="6.92181">
        <ele>411.234985</ele>
        <time>2008-10-20T22:23:09Z</time>
      </trkpt>
      <trkpt lat="48.48533" lon="6.92189">
        <ele>411.196014</ele>
        <time>2008-10-20T22:23:11Z</time>
      </trkpt>
      <trkpt lat="48.48525" lon="6.92213">
        <ele>413.309998</ele>
        <time>2008-10-20T22:23:17Z</time>
      </trkpt>
      <trkpt lat="48.48524" lon="6.92216">
        <ele>413.595001</ele>
        <time>2008-10-20T22:23:18Z</time>
      </trkpt>
      <trkpt lat="48.48523" lon="6.92258">
        <ele>415.510986</ele>
        <time>2008-10-20T22:23:28Z</time>
      </trkpt>
      <trkpt lat="48.48528" lon="6.92309">
        <ele>416.875</ele>
        <time>2008-10-20T22:23:40Z</time>
      </trkpt>
      <trkpt lat="48.4853" lon="6.92346">
        <ele>416.338013</ele>
        <time>2008-10-20T22:23:49Z</time>
      </trkpt>
      <trkpt lat="48.48524" lon="6.92384">
        <ele>416.600006</ele>
        <time>2008-10-20T22:23:58Z</time>
      </trkpt>
      <trkpt lat="48.48513" lon="6.92397">
        <ele>416.77301</ele>
        <time>2008-10-20T22:24:03Z</time>
      </trkpt>
      <trkpt lat="48.48502" lon="6.92416">
        <ele>418.143005</ele>
        <time>2008-10-20T22:24:09Z</time>
      </trkpt>
      <trkpt lat="48.48491" lon="6.92404">
        <ele>419.046997</ele>
        <time>2008-10-20T22:24:14Z</time>
      </trkpt>
      <trkpt lat="48.48485" lon="6.92388">
        <ele>420.536987</ele>
        <time>2008-10-20T22:24:19Z</time>
      </trkpt>
      <trkpt lat="48.4848" lon="6.92378">
        <ele>423.013</ele>
        <time>2008-10-20T22:24:22Z</time>
      </trkpt>
      <trkpt lat="48.4847" lon="6.92364">
        <ele>425.579987</ele>
        <time>2008-10-20T22:24:27Z</time>
      </trkpt>
      <trkpt lat="48.48457" lon="6.92353">
        <ele>428.878998</ele>
        <time>2008-10-20T22:24:32Z</time>
      </trkpt>
      <trkpt lat="48.48448" lon="6.92347">
        <ele>431.377014</ele>
        <time>2008-10-20T22:24:35Z</time>
      </trkpt>
      <trkpt lat="48.4844" lon="6.92341">
        <ele>433.872009</ele>
        <time>2008-10-20T22:24:39Z</time>
      </trkpt>
      <trkpt lat="48.48428" lon="6.92335">
        <ele>436.005005</ele>
        <time>2008-10-20T22:24:43Z</time>
      </trkpt>
      <trkpt lat="48.48414" lon="6.92331">
        <ele>437.303009</ele>
        <time>2008-10-20T22:24:48Z</time>
      </trkpt>
      <trkpt lat="48.4841" lon="6.92331">
        <ele>437.830994</ele>
        <time>2008-10-20T22:24:50Z</time>
      </trkpt>
      <trkpt lat="48.48391" lon="6.92334">
        <ele>440.588989</ele>
        <time>2008-10-20T22:24:56Z</time>
      </trkpt>
      <trkpt lat="48.48381" lon="6.92333">
        <ele>440.899994</ele>
        <time>2008-10-20T22:25:00Z</time>
      </trkpt>
      <trkpt lat="48.48357" lon="6.92354">
        <ele>445.921997</ele>
        <time>2008-10-20T22:25:10Z</time>
      </trkpt>
      <trkpt lat="48.48352" lon="6.92358">
        <ele>446.733002</ele>
        <time>2008-10-20T22:25:12Z</time>
      </trkpt>
      <trkpt lat="48.48343" lon="6.92366">
        <ele>449.160004</ele>
        <time>2008-10-20T22:25:16Z</time>
      </trkpt>
      <trkpt lat="48.48327" lon="6.92386">
        <ele>453.467987</ele>
        <time>2008-10-20T22:25:23Z</time>
      </trkpt>
      <trkpt lat="48.48322" lon="6.92397">
        <ele>453.641998</ele>
        <time>2008-10-20T22:25:27Z</time>
      </trkpt>
      <trkpt lat="48.48321" lon="6.92404">
        <ele>453.658997</ele>
        <time>2008-10-20T22:25:28Z</time>
      </trkpt>
      <trkpt lat="48.48303" lon="6.92415">
        <ele>455.75</ele>
        <time>2008-10-20T22:25:35Z</time>
      </trkpt>
      <trkpt lat="48.48287" lon="6.9243">
        <ele>458.201996</ele>
        <time>2008-10-20T22:25:42Z</time>
      </trkpt>
      <trkpt lat="48.48273" lon="6.92451">
        <ele>459.446014</ele>
        <time>2008-10-20T22:25:49Z</time>
      </trkpt>
      <trkpt lat="48.48269" lon="6.92467">
        <ele>459.694</ele>
        <time>2008-10-20T22:25:53Z</time>
      </trkpt>
      <trkpt lat="48.48272" lon="6.92481">
        <ele>460.234009</ele>
        <time>2008-10-20T22:25:57Z</time>
      </trkpt>
      <trkpt lat="48.48275" lon="6.92488">
        <ele>460.192993</ele>
        <time>2008-10-20T22:25:59Z</time>
      </trkpt>
      <trkpt lat="48.48275" lon="6.92499">
        <ele>460.136993</ele>
        <time>2008-10-20T22:26:01Z</time>
      </trkpt>
      <trkpt lat="48.48288" lon="6.92536">
        <ele>460.645996</ele>
        <time>2008-10-20T22:26:11Z</time>
      </trkpt>
      <trkpt lat="48.48301" lon="6.92586">
        <ele>461.696014</ele>
        <time>2008-10-20T22:26:24Z</time>
      </trkpt>
      <trkpt lat="48.48321" lon="6.92626">
        <ele>462.070007</ele>
        <time>2008-10-20T22:26:36Z</time>
      </trkpt>
      <trkpt lat="48.48325" lon="6.92632">
        <ele>462.167999</ele>
        <time>2008-10-20T22:26:38Z</time>
      </trkpt>
      <trkpt lat="48.48344" lon="6.9266">
        <ele>462.122009</ele>
        <time>2008-10-20T22:26:47Z</time>
      </trkpt>
      <trkpt lat="48.48352" lon="6.9268">
        <ele>462.385986</ele>
        <time>2008-10-20T22:26:53Z</time>
      </trkpt>
      <trkpt lat="48.48356" lon="6.92711">
        <ele>463.277008</ele>
        <time>2008-10-20T22:27:01Z</time>
      </trkpt>
      <trkpt lat="48.48375" lon="6.92757">
        <ele>465.181</ele>
        <time>2008-10-20T22:27:13Z</time>
      </trkpt>
      <trkpt lat="48.48385" lon="6.92789">
        <ele>466.68399</ele>
        <time>2008-10-20T22:27:22Z</time>
      </trkpt>
      <trkpt lat="48.48384" lon="6.92839">
        <ele>467.372986</ele>
        <time>2008-10-20T22:27:34Z</time>
      </trkpt>
      <trkpt lat="48.48384" lon="6.92844">
        <ele>467.428986</ele>
        <time>2008-10-20T22:27:35Z</time>
      </trkpt>
      <trkpt lat="48.4838" lon="6.9286">
        <ele>467.403992</ele>
        <time>2008-10-20T22:27:39Z</time>
      </trkpt>
      <trkpt lat="48.48392" lon="6.92883">
        <ele>469.713989</ele>
        <time>2008-10-20T22:27:46Z</time>
      </trkpt>
      <trkpt lat="48.48403" lon="6.92894">
        <ele>471.595001</ele>
        <time>2008-10-20T22:27:51Z</time>
      </trkpt>
      <trkpt lat="48.48401" lon="6.92927">
        <ele>472.385986</ele>
        <time>2008-10-20T22:27:59Z</time>
      </trkpt>
      <trkpt lat="48.48392" lon="6.92966">
        <ele>473.005005</ele>
        <time>2008-10-20T22:28:08Z</time>
      </trkpt>
      <trkpt lat="48.4839" lon="6.92973">
        <ele>473.216003</ele>
        <time>2008-10-20T22:28:10Z</time>
      </trkpt>
      <trkpt lat="48.48383" lon="6.92991">
        <ele>473.746002</ele>
        <time>2008-10-20T22:28:15Z</time>
      </trkpt>
      <trkpt lat="48.48362" lon="6.93024">
        <ele>474.667999</ele>
        <time>2008-10-20T22:28:26Z</time>
      </trkpt>
      <trkpt lat="48.48338" lon="6.93048">
        <ele>476.726013</ele>
        <time>2008-10-20T22:28:36Z</time>
      </trkpt>
      <trkpt lat="48.48311" lon="6.93068">
        <ele>479.100006</ele>
        <time>2008-10-20T22:28:47Z</time>
      </trkpt>
      <trkpt lat="48.48286" lon="6.93082">
        <ele>481.864014</ele>
        <time>2008-10-20T22:28:57Z</time>
      </trkpt>
      <trkpt lat="48.48257" lon="6.93096">
        <ele>483.958008</ele>
        <time>2008-10-20T22:29:08Z</time>
      </trkpt>
      <trkpt lat="48.48235" lon="6.93096">
        <ele>483.682007</ele>
        <time>2008-10-20T22:29:15Z</time>
      </trkpt>
      <trkpt lat="48.48235" lon="6.93096">
        <ele>483.355011</ele>
        <time>2008-10-20T22:29:15Z</time>
      </trkpt>
      <trkpt lat="48.48233" lon="6.93097">
        <ele>483.927002</ele>
        <time>2008-10-20T22:29:16Z</time>
      </trkpt>
      <trkpt lat="48.48228" lon="6.93103">
        <ele>484.636993</ele>
        <time>2008-10-20T22:29:18Z</time>
      </trkpt>
      <trkpt lat="48.48203" lon="6.93106">
        <ele>485.136993</ele>
        <time>2008-10-20T22:29:27Z</time>
      </trkpt>
      <trkpt lat="48.48175" lon="6.93098">
        <ele>485.64801</ele>
        <time>2008-10-20T22:29:37Z</time>
      </trkpt>
      <trkpt lat="48.48146" lon="6.93075">
        <ele>484.626007</ele>
        <time>2008-10-20T22:29:49Z</time>
      </trkpt>
      <trkpt lat="48.48116" lon="6.93055">
        <ele>483.932007</ele>
        <time>2008-10-20T22:30:01Z</time>
      </trkpt>
      <trkpt lat="48.48091" lon="6.9303">
        <ele>483.186005</ele>
        <time>2008-10-20T22:30:12Z</time>
      </trkpt>
      <trkpt lat="48.48062" lon="6.92984">
        <ele>481.894012</ele>
        <time>2008-10-20T22:30:27Z</time>
      </trkpt>
      <trkpt lat="48.48056" lon="6.92977">
        <ele>481.997009</ele>
        <time>2008-10-20T22:30:30Z</time>
      </trkpt>
      <trkpt lat="48.48056" lon="6.92977">
        <ele>481.734009</ele>
        <time>2008-10-20T22:30:30Z</time>
      </trkpt>
      <trkpt lat="48.48047" lon="6.92963">
        <ele>481.662994</ele>
        <time>2008-10-20T22:30:34Z</time>
      </trkpt>
      <trkpt lat="48.48043" lon="6.92958">
        <ele>481.609985</ele>
        <time>2008-10-20T22:30:36Z</time>
      </trkpt>
      <trkpt lat="48.48042" lon="6.92957">
        <ele>481.376007</ele>
        <time>2008-10-20T22:30:36Z</time>
      </trkpt>
      <trkpt lat="48.48037" lon="6.92949">
        <ele>481.625</ele>
        <time>2008-10-20T22:30:39Z</time>
      </trkpt>
      <trkpt lat="48.48013" lon="6.92922">
        <ele>480.350006</ele>
        <time>2008-10-20T22:30:50Z</time>
      </trkpt>
      <trkpt lat="48.47986" lon="6.92886">
        <ele>479.019989</ele>
        <time>2008-10-20T22:31:03Z</time>
      </trkpt>
      <trkpt lat="48.47961" lon="6.92854">
        <ele>477.346008</ele>
        <time>2008-10-20T22:31:14Z</time>
      </trkpt>
      <trkpt lat="48.47933" lon="6.92809">
        <ele>475.368988</ele>
        <time>2008-10-20T22:31:29Z</time>
      </trkpt>
      <trkpt lat="48.47913" lon="6.92785">
        <ele>473.838013</ele>
        <time>2008-10-20T22:31:38Z</time>
      </trkpt>
      <trkpt lat="48.47903" lon="6.92778">
        <ele>473.437012</ele>
        <time>2008-10-20T22:31:42Z</time>
      </trkpt>
      <trkpt lat="48.47886" lon="6.92764">
        <ele>472.796997</ele>
        <time>2008-10-20T22:31:49Z</time>
      </trkpt>
      <trkpt lat="48.47834" lon="6.92728">
        <ele>471.319</ele>
        <time>2008-10-20T22:32:10Z</time>
      </trkpt>
      <trkpt lat="48.47825" lon="6.92723">
        <ele>471.436005</ele>
        <time>2008-10-20T22:32:13Z</time>
      </trkpt>
      <trkpt lat="48.47791" lon="6.92699">
        <ele>472.358002</ele>
        <time>2008-10-20T22:32:27Z</time>
      </trkpt>
      <trkpt lat="48.47755" lon="6.92669">
        <ele>473.029999</ele>
        <time>2008-10-20T22:32:41Z</time>
      </trkpt>
      <trkpt lat="48.47741" lon="6.9266">
        <ele>473.313995</ele>
        <time>2008-10-20T22:32:47Z</time>
      </trkpt>
      <trkpt lat="48.47691" lon="6.92634">
        <ele>472.869995</ele>
        <time>2008-10-20T22:33:06Z</time>
      </trkpt>
      <trkpt lat="48.47652" lon="6.92616">
        <ele>472.863007</ele>
        <time>2008-10-20T22:33:21Z</time>
      </trkpt>
      <trkpt lat="48.4764" lon="6.92609">
        <ele>472.48999</ele>
        <time>2008-10-20T22:33:25Z</time>
      </trkpt>
      <trkpt lat="48.47597" lon="6.92574">
        <ele>471.601013</ele>
        <time>2008-10-20T22:33:42Z</time>
      </trkpt>
      <trkpt lat="48.4759" lon="6.9256">
        <ele>471.623993</ele>
        <time>2008-10-20T22:33:47Z</time>
      </trkpt>
      <trkpt lat="48.47556" lon="6.92512">
        <ele>470.636993</ele>
        <time>2008-10-20T22:34:04Z</time>
      </trkpt>
      <trkpt lat="48.47527" lon="6.92456">
        <ele>468.437988</ele>
        <time>2008-10-20T22:34:20Z</time>
      </trkpt>
      <trkpt lat="48.47512" lon="6.92413">
        <ele>466.832001</ele>
        <time>2008-10-20T22:34:32Z</time>
      </trkpt>
      <trkpt lat="48.47488" lon="6.92363">
        <ele>464.509003</ele>
        <time>2008-10-20T22:34:46Z</time>
      </trkpt>
      <trkpt lat="48.47478" lon="6.92337">
        <ele>460.917999</ele>
        <time>2008-10-20T22:34:54Z</time>
      </trkpt>
      <trkpt lat="48.47475" lon="6.92329">
        <ele>459.596985</ele>
        <time>2008-10-20T22:34:56Z</time>
      </trkpt>
      <trkpt lat="48.47472" lon="6.9232">
        <ele>457.139008</ele>
        <time>2008-10-20T22:34:58Z</time>
      </trkpt>
      <trkpt lat="48.47469" lon="6.92314">
        <ele>454.868988</ele>
        <time>2008-10-20T22:35:00Z</time>
      </trkpt>
      <trkpt lat="48.47467" lon="6.92309">
        <ele>453.326996</ele>
        <time>2008-10-20T22:35:01Z</time>
      </trkpt>
      <trkpt lat="48.47467" lon="6.92303">
        <ele>452.03299</ele>
        <time>2008-10-20T22:35:03Z</time>
      </trkpt>
      <trkpt lat="48.47463" lon="6.92294">
        <ele>449.95401</ele>
        <time>2008-10-20T22:35:06Z</time>
      </trkpt>
      <trkpt lat="48.47457" lon="6.9229">
        <ele>448.333008</ele>
        <time>2008-10-20T22:35:08Z</time>
      </trkpt>
      <trkpt lat="48.47453" lon="6.92281">
        <ele>445.497009</ele>
        <time>2008-10-20T22:35:10Z</time>
      </trkpt>
      <trkpt lat="48.47453" lon="6.9228">
        <ele>444.972992</ele>
        <time>2008-10-20T22:35:10Z</time>
      </trkpt>
      <trkpt lat="48.47443" lon="6.92267">
        <ele>439.949005</ele>
        <time>2008-10-20T22:35:15Z</time>
      </trkpt>
      <trkpt lat="48.47436" lon="6.92262">
        <ele>437.130005</ele>
        <time>2008-10-20T22:35:18Z</time>
      </trkpt>
      <trkpt lat="48.47432" lon="6.92255">
        <ele>435.882996</ele>
        <time>2008-10-20T22:35:20Z</time>
      </trkpt>
      <trkpt lat="48.47425" lon="6.92247">
        <ele>432.167999</ele>
        <time>2008-10-20T22:35:23Z</time>
      </trkpt>
      <trkpt lat="48.4741" lon="6.9224">
        <ele>427.29599</ele>
        <time>2008-10-20T22:35:29Z</time>
      </trkpt>
      <trkpt lat="48.47388" lon="6.92222">
        <ele>419.82901</ele>
        <time>2008-10-20T22:35:38Z</time>
      </trkpt>
      <trkpt lat="48.47383" lon="6.92219">
        <ele>418.959015</ele>
        <time>2008-10-20T22:35:40Z</time>
      </trkpt>
      <trkpt lat="48.47383" lon="6.92219">
        <ele>419.367004</ele>
        <time>2008-10-20T22:35:40Z</time>
      </trkpt>
      <trkpt lat="48.4738" lon="6.92228">
        <ele>418.454987</ele>
        <time>2008-10-20T22:35:42Z</time>
      </trkpt>
      <trkpt lat="48.47377" lon="6.92263">
        <ele>418.510986</ele>
        <time>2008-10-20T22:35:50Z</time>
      </trkpt>
      <trkpt lat="48.47382" lon="6.92317">
        <ele>418.721985</ele>
        <time>2008-10-20T22:36:03Z</time>
      </trkpt>
      <trkpt lat="48.47397" lon="6.924">
        <ele>419.251007</ele>
        <time>2008-10-20T22:36:24Z</time>
      </trkpt>
      <trkpt lat="48.47417" lon="6.92459">
        <ele>418.975006</ele>
        <time>2008-10-20T22:36:40Z</time>
      </trkpt>
      <trkpt lat="48.47447" lon="6.92548">
        <ele>418.958008</ele>
        <time>2008-10-20T22:37:03Z</time>
      </trkpt>
      <trkpt lat="48.47469" lon="6.92605">
        <ele>419.477997</ele>
        <time>2008-10-20T22:37:19Z</time>
      </trkpt>
      <trkpt lat="48.47479" lon="6.92629">
        <ele>419.390015</ele>
        <time>2008-10-20T22:37:26Z</time>
      </trkpt>
      <trkpt lat="48.47507" lon="6.92686">
        <ele>419.276001</ele>
        <time>2008-10-20T22:37:43Z</time>
      </trkpt>
      <trkpt lat="48.47539" lon="6.92722">
        <ele>419.532013</ele>
        <time>2008-10-20T22:37:57Z</time>
      </trkpt>
      <trkpt lat="48.47562" lon="6.92738">
        <ele>419.421997</ele>
        <time>2008-10-20T22:38:06Z</time>
      </trkpt>
      <trkpt lat="48.47572" lon="6.92744">
        <ele>419.838989</ele>
        <time>2008-10-20T22:38:10Z</time>
      </trkpt>
      <trkpt lat="48.47588" lon="6.92755">
        <ele>420.233002</ele>
        <time>2008-10-20T22:38:16Z</time>
      </trkpt>
      <trkpt lat="48.47597" lon="6.92758">
        <ele>420.058014</ele>
        <time>2008-10-20T22:38:20Z</time>
      </trkpt>
      <trkpt lat="48.47622" lon="6.92763">
        <ele>420.227997</ele>
        <time>2008-10-20T22:38:29Z</time>
      </trkpt>
      <trkpt lat="48.47642" lon="6.92764">
        <ele>420.744995</ele>
        <time>2008-10-20T22:38:36Z</time>
      </trkpt>
      <trkpt lat="48.47685" lon="6.92772">
        <ele>422.195007</ele>
        <time>2008-10-20T22:38:51Z</time>
      </trkpt>
      <trkpt lat="48.47681" lon="6.92785">
        <ele>421.975006</ele>
        <time>2008-10-20T22:38:55Z</time>
      </trkpt>
      <trkpt lat="48.47677" lon="6.92777">
        <ele>421</ele>
        <time>2008-10-20T22:38:57Z</time>
      </trkpt>
      <trkpt lat="48.47678" lon="6.92775">
        <ele>418.878998</ele>
        <time>2008-10-20T22:38:58Z</time>
      </trkpt>
      <trkpt lat="48.47676" lon="6.92776">
        <ele>418.561005</ele>
        <time>2008-10-20T22:38:58Z</time>
      </trkpt>
      <trkpt lat="48.47669" lon="6.92781">
        <ele>417.087006</ele>
        <time>2008-10-20T22:39:01Z</time>
      </trkpt>
      <trkpt lat="48.47653" lon="6.92789">
        <ele>414.07901</ele>
        <time>2008-10-20T22:39:07Z</time>
      </trkpt>
      <trkpt lat="48.47645" lon="6.9279">
        <ele>412.657013</ele>
        <time>2008-10-20T22:39:10Z</time>
      </trkpt>
      <trkpt lat="48.47643" lon="6.92795">
        <ele>412.420013</ele>
        <time>2008-10-20T22:39:11Z</time>
      </trkpt>
      <trkpt lat="48.47633" lon="6.92816">
        <ele>407.907013</ele>
        <time>2008-10-20T22:39:18Z</time>
      </trkpt>
      <trkpt lat="48.4763" lon="6.92823">
        <ele>406.532013</ele>
        <time>2008-10-20T22:39:20Z</time>
      </trkpt>
      <trkpt lat="48.47628" lon="6.92833">
        <ele>402.179993</ele>
        <time>2008-10-20T22:39:22Z</time>
      </trkpt>
      <trkpt lat="48.47624" lon="6.92839">
        <ele>400.298004</ele>
        <time>2008-10-20T22:39:24Z</time>
      </trkpt>
      <trkpt lat="48.4762" lon="6.92844">
        <ele>398.540009</ele>
        <time>2008-10-20T22:39:26Z</time>
      </trkpt>
      <trkpt lat="48.47618" lon="6.92848">
        <ele>397.178009</ele>
        <time>2008-10-20T22:39:27Z</time>
      </trkpt>
      <trkpt lat="48.47619" lon="6.92842">
        <ele>397.045013</ele>
        <time>2008-10-20T22:39:28Z</time>
      </trkpt>
      <trkpt lat="48.47639" lon="6.92853">
        <ele>396.472992</ele>
        <time>2008-10-20T22:39:36Z</time>
      </trkpt>
      <trkpt lat="48.47668" lon="6.92894">
        <ele>396.100006</ele>
        <time>2008-10-20T22:39:50Z</time>
      </trkpt>
      <trkpt lat="48.47677" lon="6.9291">
        <ele>395.537994</ele>
        <time>2008-10-20T22:39:55Z</time>
      </trkpt>
      <trkpt lat="48.47675" lon="6.92915">
        <ele>394.880005</ele>
        <time>2008-10-20T22:39:57Z</time>
      </trkpt>
      <trkpt lat="48.47641" lon="6.92919">
        <ele>393.154999</ele>
        <time>2008-10-20T22:40:09Z</time>
      </trkpt>
      <trkpt lat="48.47609" lon="6.92923">
        <ele>394.556</ele>
        <time>2008-10-20T22:40:20Z</time>
      </trkpt>
      <trkpt lat="48.47577" lon="6.9292">
        <ele>395.019012</ele>
        <time>2008-10-20T22:40:32Z</time>
      </trkpt>
      <trkpt lat="48.4754" lon="6.92902">
        <ele>395.338989</ele>
        <time>2008-10-20T22:40:46Z</time>
      </trkpt>
      <trkpt lat="48.4751" lon="6.92908">
        <ele>396.812988</ele>
        <time>2008-10-20T22:40:57Z</time>
      </trkpt>
      <trkpt lat="48.47498" lon="6.92917">
        <ele>397.854004</ele>
        <time>2008-10-20T22:41:02Z</time>
      </trkpt>
      <trkpt lat="48.47475" lon="6.92927">
        <ele>395.744995</ele>
        <time>2008-10-20T22:41:10Z</time>
      </trkpt>
      <trkpt lat="48.47466" lon="6.92923">
        <ele>394.266998</ele>
        <time>2008-10-20T22:41:13Z</time>
      </trkpt>
      <trkpt lat="48.47446" lon="6.92892">
        <ele>393.773987</ele>
        <time>2008-10-20T22:41:24Z</time>
      </trkpt>
      <trkpt lat="48.47431" lon="6.92868">
        <ele>393.903015</ele>
        <time>2008-10-20T22:41:32Z</time>
      </trkpt>
      <trkpt lat="48.4743" lon="6.92865">
        <ele>393.859985</ele>
        <time>2008-10-20T22:41:32Z</time>
      </trkpt>
      <trkpt lat="48.47419" lon="6.9286">
        <ele>391.958008</ele>
        <time>2008-10-20T22:41:37Z</time>
      </trkpt>
      <trkpt lat="48.47392" lon="6.92839">
        <ele>391.953003</ele>
        <time>2008-10-20T22:41:48Z</time>
      </trkpt>
      <trkpt lat="48.47372" lon="6.92822">
        <ele>392.794006</ele>
        <time>2008-10-20T22:41:55Z</time>
      </trkpt>
      <trkpt lat="48.47366" lon="6.92818">
        <ele>393.119995</ele>
        <time>2008-10-20T22:41:58Z</time>
      </trkpt>
      <trkpt lat="48.47362" lon="6.92815">
        <ele>392.997986</ele>
        <time>2008-10-20T22:42:00Z</time>
      </trkpt>
      <trkpt lat="48.47356" lon="6.92807">
        <ele>392.27301</ele>
        <time>2008-10-20T22:42:02Z</time>
      </trkpt>
      <trkpt lat="48.47332" lon="6.92792">
        <ele>392.488007</ele>
        <time>2008-10-20T22:42:12Z</time>
      </trkpt>
      <trkpt lat="48.47327" lon="6.92789">
        <ele>393.161987</ele>
        <time>2008-10-20T22:42:14Z</time>
      </trkpt>
      <trkpt lat="48.47317" lon="6.92775">
        <ele>391.977997</ele>
        <time>2008-10-20T22:42:19Z</time>
      </trkpt>
      <trkpt lat="48.47303" lon="6.92766">
        <ele>392.539001</ele>
        <time>2008-10-20T22:42:24Z</time>
      </trkpt>
      <trkpt lat="48.47296" lon="6.92763">
        <ele>392.630005</ele>
        <time>2008-10-20T22:42:27Z</time>
      </trkpt>
      <trkpt lat="48.47281" lon="6.92769">
        <ele>392.428986</ele>
        <time>2008-10-20T22:42:32Z</time>
      </trkpt>
      <trkpt lat="48.47269" lon="6.92771">
        <ele>392.645996</ele>
        <time>2008-10-20T22:42:36Z</time>
      </trkpt>
      <trkpt lat="48.47255" lon="6.92757">
        <ele>393.832001</ele>
        <time>2008-10-20T22:42:43Z</time>
      </trkpt>
      <trkpt lat="48.47252" lon="6.92748">
        <ele>393.393005</ele>
        <time>2008-10-20T22:42:45Z</time>
      </trkpt>
      <trkpt lat="48.47247" lon="6.92735">
        <ele>393.578003</ele>
        <time>2008-10-20T22:42:48Z</time>
      </trkpt>
      <trkpt lat="48.47242" lon="6.92727">
        <ele>393.622009</ele>
        <time>2008-10-20T22:42:51Z</time>
      </trkpt>
      <trkpt lat="48.47239" lon="6.92723">
        <ele>394.187988</ele>
        <time>2008-10-20T22:42:53Z</time>
      </trkpt>
      <trkpt lat="48.47236" lon="6.9271">
        <ele>395.735992</ele>
        <time>2008-10-20T22:42:56Z</time>
      </trkpt>
      <trkpt lat="48.4723" lon="6.92684">
        <ele>398.019012</ele>
        <time>2008-10-20T22:43:02Z</time>
      </trkpt>
      <trkpt lat="48.47229" lon="6.92668">
        <ele>398.013</ele>
        <time>2008-10-20T22:43:06Z</time>
      </trkpt>
      <trkpt lat="48.47226" lon="6.92658">
        <ele>397.990997</ele>
        <time>2008-10-20T22:43:09Z</time>
      </trkpt>
      <trkpt lat="48.47219" lon="6.92626">
        <ele>396.619995</ele>
        <time>2008-10-20T22:43:17Z</time>
      </trkpt>
      <trkpt lat="48.47218" lon="6.92624">
        <ele>396.333008</ele>
        <time>2008-10-20T22:43:18Z</time>
      </trkpt>
      <trkpt lat="48.47216" lon="6.92607">
        <ele>396.363007</ele>
        <time>2008-10-20T22:43:21Z</time>
      </trkpt>
      <trkpt lat="48.47213" lon="6.92599">
        <ele>396.269989</ele>
        <time>2008-10-20T22:43:24Z</time>
      </trkpt>
      <trkpt lat="48.47212" lon="6.92586">
        <ele>395.65799</ele>
        <time>2008-10-20T22:43:27Z</time>
      </trkpt>
      <trkpt lat="48.47206" lon="6.9257">
        <ele>394.75</ele>
        <time>2008-10-20T22:43:31Z</time>
      </trkpt>
      <trkpt lat="48.47195" lon="6.9254">
        <ele>393.829987</ele>
        <time>2008-10-20T22:43:39Z</time>
      </trkpt>
      <trkpt lat="48.47188" lon="6.92533">
        <ele>393.510986</ele>
        <time>2008-10-20T22:43:42Z</time>
      </trkpt>
      <trkpt lat="48.47184" lon="6.9253">
        <ele>393.197998</ele>
        <time>2008-10-20T22:43:44Z</time>
      </trkpt>
      <trkpt lat="48.47173" lon="6.92516">
        <ele>394.477997</ele>
        <time>2008-10-20T22:43:49Z</time>
      </trkpt>
      <trkpt lat="48.47166" lon="6.92487">
        <ele>393.815002</ele>
        <time>2008-10-20T22:43:57Z</time>
      </trkpt>
      <trkpt lat="48.47151" lon="6.92445">
        <ele>393.95401</ele>
        <time>2008-10-20T22:44:08Z</time>
      </trkpt>
      <trkpt lat="48.4715" lon="6.92438">
        <ele>393.660004</ele>
        <time>2008-10-20T22:44:10Z</time>
      </trkpt>
      <trkpt lat="48.47138" lon="6.92407">
        <ele>394.634003</ele>
        <time>2008-10-20T22:44:18Z</time>
      </trkpt>
      <trkpt lat="48.47138" lon="6.92405">
        <ele>395.078003</ele>
        <time>2008-10-20T22:44:19Z</time>
      </trkpt>
      <trkpt lat="48.4713" lon="6.92403">
        <ele>396.976013</ele>
        <time>2008-10-20T22:44:21Z</time>
      </trkpt>
      <trkpt lat="48.47125" lon="6.92391">
        <ele>395.984009</ele>
        <time>2008-10-20T22:44:25Z</time>
      </trkpt>
      <trkpt lat="48.4712" lon="6.92379">
        <ele>395.196014</ele>
        <time>2008-10-20T22:44:28Z</time>
      </trkpt>
      <trkpt lat="48.47121" lon="6.92368">
        <ele>394.368011</ele>
        <time>2008-10-20T22:44:31Z</time>
      </trkpt>
      <trkpt lat="48.47113" lon="6.92342">
        <ele>393.510986</ele>
        <time>2008-10-20T22:44:38Z</time>
      </trkpt>
      <trkpt lat="48.47103" lon="6.92322">
        <ele>394.101013</ele>
        <time>2008-10-20T22:44:44Z</time>
      </trkpt>
      <trkpt lat="48.47094" lon="6.92296">
        <ele>393.053009</ele>
        <time>2008-10-20T22:44:51Z</time>
      </trkpt>
      <trkpt lat="48.47084" lon="6.92288">
        <ele>394.216003</ele>
        <time>2008-10-20T22:44:55Z</time>
      </trkpt>
      <trkpt lat="48.47059" lon="6.92246">
        <ele>392.72699</ele>
        <time>2008-10-20T22:45:08Z</time>
      </trkpt>
      <trkpt lat="48.47039" lon="6.92224">
        <ele>393.278992</ele>
        <time>2008-10-20T22:45:17Z</time>
      </trkpt>
      <trkpt lat="48.4703" lon="6.92231">
        <ele>394.112</ele>
        <time>2008-10-20T22:45:21Z</time>
      </trkpt>
      <trkpt lat="48.47007" lon="6.92227">
        <ele>393.252991</ele>
        <time>2008-10-20T22:45:29Z</time>
      </trkpt>
      <trkpt lat="48.46996" lon="6.92234">
        <ele>394.696014</ele>
        <time>2008-10-20T22:45:33Z</time>
      </trkpt>
      <trkpt lat="48.46994" lon="6.92235">
        <ele>394.598999</ele>
        <time>2008-10-20T22:45:34Z</time>
      </trkpt>
      <trkpt lat="48.46985" lon="6.92243">
        <ele>394.505005</ele>
        <time>2008-10-20T22:45:38Z</time>
      </trkpt>
      <trkpt lat="48.46968" lon="6.92253">
        <ele>395.195007</ele>
        <time>2008-10-20T22:45:44Z</time>
      </trkpt>
      <trkpt lat="48.46966" lon="6.92253">
        <ele>394.605011</ele>
        <time>2008-10-20T22:45:45Z</time>
      </trkpt>
      <trkpt lat="48.46964" lon="6.92253">
        <ele>393.799988</ele>
        <time>2008-10-20T22:45:46Z</time>
      </trkpt>
      <trkpt lat="48.4696" lon="6.92255">
        <ele>393.627991</ele>
        <time>2008-10-20T22:45:47Z</time>
      </trkpt>
      <trkpt lat="48.46958" lon="6.92255">
        <ele>393.768005</ele>
        <time>2008-10-20T22:45:48Z</time>
      </trkpt>
      <trkpt lat="48.4695" lon="6.92261">
        <ele>395.433014</ele>
        <time>2008-10-20T22:45:51Z</time>
      </trkpt>
      <trkpt lat="48.46946" lon="6.9226">
        <ele>395.86499</ele>
        <time>2008-10-20T22:45:53Z</time>
      </trkpt>
      <trkpt lat="48.46938" lon="6.92243">
        <ele>395.234985</ele>
        <time>2008-10-20T22:45:58Z</time>
      </trkpt>
      <trkpt lat="48.46929" lon="6.92226">
        <ele>394.136993</ele>
        <time>2008-10-20T22:46:03Z</time>
      </trkpt>
      <trkpt lat="48.46906" lon="6.92196">
        <ele>395.118011</ele>
        <time>2008-10-20T22:46:14Z</time>
      </trkpt>
      <trkpt lat="48.46904" lon="6.92194">
        <ele>395.199005</ele>
        <time>2008-10-20T22:46:14Z</time>
      </trkpt>
      <trkpt lat="48.46889" lon="6.92178">
        <ele>394.968994</ele>
        <time>2008-10-20T22:46:21Z</time>
      </trkpt>
      <trkpt lat="48.46872" lon="6.92159">
        <ele>394.535004</ele>
        <time>2008-10-20T22:46:29Z</time>
      </trkpt>
      <trkpt lat="48.46867" lon="6.9215">
        <ele>394.156006</ele>
        <time>2008-10-20T22:46:31Z</time>
      </trkpt>
      <trkpt lat="48.46864" lon="6.92148">
        <ele>394.023987</ele>
        <time>2008-10-20T22:46:33Z</time>
      </trkpt>
      <trkpt lat="48.46859" lon="6.92145">
        <ele>394.531006</ele>
        <time>2008-10-20T22:46:35Z</time>
      </trkpt>
      <trkpt lat="48.46837" lon="6.92147">
        <ele>394.485992</ele>
        <time>2008-10-20T22:46:43Z</time>
      </trkpt>
      <trkpt lat="48.46837" lon="6.92147">
        <ele>394.432007</ele>
        <time>2008-10-20T22:46:43Z</time>
      </trkpt>
      <trkpt lat="48.46826" lon="6.92142">
        <ele>394.52301</ele>
        <time>2008-10-20T22:46:47Z</time>
      </trkpt>
      <trkpt lat="48.46805" lon="6.9213">
        <ele>394.036011</ele>
        <time>2008-10-20T22:46:55Z</time>
      </trkpt>
      <trkpt lat="48.46794" lon="6.92122">
        <ele>393.730011</ele>
        <time>2008-10-20T22:46:59Z</time>
      </trkpt>
      <trkpt lat="48.46786" lon="6.92119">
        <ele>394.348999</ele>
        <time>2008-10-20T22:47:02Z</time>
      </trkpt>
      <trkpt lat="48.46779" lon="6.92123">
        <ele>395.992004</ele>
        <time>2008-10-20T22:47:05Z</time>
      </trkpt>
      <trkpt lat="48.46766" lon="6.92118">
        <ele>396.35199</ele>
        <time>2008-10-20T22:47:10Z</time>
      </trkpt>
      <trkpt lat="48.46738" lon="6.92111">
        <ele>396.783997</ele>
        <time>2008-10-20T22:47:19Z</time>
      </trkpt>
      <trkpt lat="48.46711" lon="6.92106">
        <ele>397.376007</ele>
        <time>2008-10-20T22:47:29Z</time>
      </trkpt>
      <trkpt lat="48.46689" lon="6.92105">
        <ele>397.140991</ele>
        <time>2008-10-20T22:47:37Z</time>
      </trkpt>
      <trkpt lat="48.46687" lon="6.92105">
        <ele>397.450012</ele>
        <time>2008-10-20T22:47:38Z</time>
      </trkpt>
      <trkpt lat="48.46682" lon="6.92103">
        <ele>397.325012</ele>
        <time>2008-10-20T22:47:40Z</time>
      </trkpt>
      <trkpt lat="48.46664" lon="6.92102">
        <ele>396.988007</ele>
        <time>2008-10-20T22:47:46Z</time>
      </trkpt>
      <trkpt lat="48.4666" lon="6.92103">
        <ele>397.033997</ele>
        <time>2008-10-20T22:47:48Z</time>
      </trkpt>
      <trkpt lat="48.46626" lon="6.92109">
        <ele>397.604004</ele>
        <time>2008-10-20T22:48:00Z</time>
      </trkpt>
      <trkpt lat="48.46598" lon="6.92114">
        <ele>398.098999</ele>
        <time>2008-10-20T22:48:10Z</time>
      </trkpt>
      <trkpt lat="48.46577" lon="6.92132">
        <ele>398.684998</ele>
        <time>2008-10-20T22:48:19Z</time>
      </trkpt>
      <trkpt lat="48.46569" lon="6.92164">
        <ele>398.645996</ele>
        <time>2008-10-20T22:48:27Z</time>
      </trkpt>
      <trkpt lat="48.46577" lon="6.92226">
        <ele>401.06601</ele>
        <time>2008-10-20T22:48:42Z</time>
      </trkpt>
      <trkpt lat="48.4659" lon="6.92277">
        <ele>402.390991</ele>
        <time>2008-10-20T22:48:55Z</time>
      </trkpt>
      <trkpt lat="48.46608" lon="6.92327">
        <ele>403.420013</ele>
        <time>2008-10-20T22:49:09Z</time>
      </trkpt>
      <trkpt lat="48.46621" lon="6.92364">
        <ele>404.688995</ele>
        <time>2008-10-20T22:49:19Z</time>
      </trkpt>
      <trkpt lat="48.46645" lon="6.9242">
        <ele>406.815002</ele>
        <time>2008-10-20T22:49:35Z</time>
      </trkpt>
      <trkpt lat="48.46658" lon="6.92469">
        <ele>407.96701</ele>
        <time>2008-10-20T22:49:47Z</time>
      </trkpt>
      <trkpt lat="48.46669" lon="6.92497">
        <ele>407.324005</ele>
        <time>2008-10-20T22:49:55Z</time>
      </trkpt>
      <trkpt lat="48.46687" lon="6.92563">
        <ele>403.25</ele>
        <time>2008-10-20T22:50:12Z</time>
      </trkpt>
      <trkpt lat="48.467" lon="6.9261">
        <ele>400.950012</ele>
        <time>2008-10-20T22:50:24Z</time>
      </trkpt>
      <trkpt lat="48.46704" lon="6.92633">
        <ele>400.102997</ele>
        <time>2008-10-20T22:50:29Z</time>
      </trkpt>
      <trkpt lat="48.46706" lon="6.92653">
        <ele>399.904999</ele>
        <time>2008-10-20T22:50:34Z</time>
      </trkpt>
      <trkpt lat="48.4672" lon="6.92715">
        <ele>398.377991</ele>
        <time>2008-10-20T22:50:50Z</time>
      </trkpt>
      <trkpt lat="48.46729" lon="6.92769">
        <ele>397.550995</ele>
        <time>2008-10-20T22:51:03Z</time>
      </trkpt>
      <trkpt lat="48.4675" lon="6.92873">
        <ele>397.295013</ele>
        <time>2008-10-20T22:51:29Z</time>
      </trkpt>
      <trkpt lat="48.46758" lon="6.92943">
        <ele>398.695007</ele>
        <time>2008-10-20T22:51:46Z</time>
      </trkpt>
      <trkpt lat="48.46741" lon="6.92979">
        <ele>399.524994</ele>
        <time>2008-10-20T22:51:56Z</time>
      </trkpt>
      <trkpt lat="48.4673" lon="6.9298">
        <ele>399.743011</ele>
        <time>2008-10-20T22:52:00Z</time>
      </trkpt>
      <trkpt lat="48.46726" lon="6.92985">
        <ele>400.587006</ele>
        <time>2008-10-20T22:52:02Z</time>
      </trkpt>
      <trkpt lat="48.46727" lon="6.92987">
        <ele>400.700012</ele>
        <time>2008-10-20T22:52:03Z</time>
      </trkpt>
      <trkpt lat="48.4673" lon="6.92992">
        <ele>401.691986</ele>
        <time>2008-10-20T22:52:04Z</time>
      </trkpt>
      <trkpt lat="48.46744" lon="6.93017">
        <ele>405.295013</ele>
        <time>2008-10-20T22:52:12Z</time>
      </trkpt>
      <trkpt lat="48.46762" lon="6.93047">
        <ele>410.90799</ele>
        <time>2008-10-20T22:52:22Z</time>
      </trkpt>
      <trkpt lat="48.46776" lon="6.9307">
        <ele>415.740997</ele>
        <time>2008-10-20T22:52:29Z</time>
      </trkpt>
      <trkpt lat="48.46789" lon="6.93083">
        <ele>418.522003</ele>
        <time>2008-10-20T22:52:34Z</time>
      </trkpt>
      <trkpt lat="48.4679" lon="6.93088">
        <ele>419.303009</ele>
        <time>2008-10-20T22:52:36Z</time>
      </trkpt>
      <trkpt lat="48.46796" lon="6.93099">
        <ele>420.923004</ele>
        <time>2008-10-20T22:52:39Z</time>
      </trkpt>
      <trkpt lat="48.46809" lon="6.93129">
        <ele>425.161987</ele>
        <time>2008-10-20T22:52:48Z</time>
      </trkpt>
      <trkpt lat="48.4682" lon="6.93158">
        <ele>429.36499</ele>
        <time>2008-10-20T22:52:56Z</time>
      </trkpt>
      <trkpt lat="48.46826" lon="6.9317">
        <ele>431.18399</ele>
        <time>2008-10-20T22:52:59Z</time>
      </trkpt>
      <trkpt lat="48.46832" lon="6.93179">
        <ele>432.622009</ele>
        <time>2008-10-20T22:53:02Z</time>
      </trkpt>
      <trkpt lat="48.46839" lon="6.93213">
        <ele>435.373993</ele>
        <time>2008-10-20T22:53:11Z</time>
      </trkpt>
      <trkpt lat="48.46845" lon="6.93228">
        <ele>436.255005</ele>
        <time>2008-10-20T22:53:15Z</time>
      </trkpt>
      <trkpt lat="48.46851" lon="6.93227">
        <ele>436.084991</ele>
        <time>2008-10-20T22:53:17Z</time>
      </trkpt>
      <trkpt lat="48.46853" lon="6.93235">
        <ele>436.365997</ele>
        <time>2008-10-20T22:53:19Z</time>
      </trkpt>
      <trkpt lat="48.46853" lon="6.93235">
        <ele>436.294006</ele>
        <time>2008-10-20T22:53:19Z</time>
      </trkpt>
      <trkpt lat="48.46851" lon="6.93233">
        <ele>436.397003</ele>
        <time>2008-10-20T22:53:19Z</time>
      </trkpt>
      <trkpt lat="48.46846" lon="6.93229">
        <ele>436.277008</ele>
        <time>2008-10-20T22:53:21Z</time>
      </trkpt>
      <trkpt lat="48.4685" lon="6.93234">
        <ele>436.425995</ele>
        <time>2008-10-20T22:53:23Z</time>
      </trkpt>
      <trkpt lat="48.46851" lon="6.93237">
        <ele>436.243988</ele>
        <time>2008-10-20T22:53:24Z</time>
      </trkpt>
      <trkpt lat="48.46848" lon="6.93236">
        <ele>436.376007</ele>
        <time>2008-10-20T22:53:25Z</time>
      </trkpt>
      <trkpt lat="48.46847" lon="6.93227">
        <ele>436.278992</ele>
        <time>2008-10-20T22:53:27Z</time>
      </trkpt>
      <trkpt lat="48.46833" lon="6.93234">
        <ele>437.492004</ele>
        <time>2008-10-20T22:53:33Z</time>
      </trkpt>
      <trkpt lat="48.46813" lon="6.93257">
        <ele>440.35199</ele>
        <time>2008-10-20T22:53:42Z</time>
      </trkpt>
      <trkpt lat="48.46788" lon="6.9329">
        <ele>444.894012</ele>
        <time>2008-10-20T22:53:54Z</time>
      </trkpt>
      <trkpt lat="48.46779" lon="6.93328">
        <ele>446.757996</ele>
        <time>2008-10-20T22:54:03Z</time>
      </trkpt>
      <trkpt lat="48.46778" lon="6.93362">
        <ele>449.209015</ele>
        <time>2008-10-20T22:54:11Z</time>
      </trkpt>
      <trkpt lat="48.46769" lon="6.93398">
        <ele>451.673004</ele>
        <time>2008-10-20T22:54:20Z</time>
      </trkpt>
      <trkpt lat="48.46763" lon="6.93417">
        <ele>451.963013</ele>
        <time>2008-10-20T22:54:25Z</time>
      </trkpt>
      <trkpt lat="48.46753" lon="6.93435">
        <ele>451.179993</ele>
        <time>2008-10-20T22:54:31Z</time>
      </trkpt>
      <trkpt lat="48.46726" lon="6.9346">
        <ele>447.865997</ele>
        <time>2008-10-20T22:54:42Z</time>
      </trkpt>
      <trkpt lat="48.4672" lon="6.93493">
        <ele>446.786987</ele>
        <time>2008-10-20T22:54:51Z</time>
      </trkpt>
      <trkpt lat="48.46736" lon="6.93538">
        <ele>446.09201</ele>
        <time>2008-10-20T22:55:03Z</time>
      </trkpt>
      <trkpt lat="48.46748" lon="6.93553">
        <ele>445.937012</ele>
        <time>2008-10-20T22:55:08Z</time>
      </trkpt>
      <trkpt lat="48.46792" lon="6.9358">
        <ele>443.315002</ele>
        <time>2008-10-20T22:55:25Z</time>
      </trkpt>
      <trkpt lat="48.46821" lon="6.93612">
        <ele>441.591003</ele>
        <time>2008-10-20T22:55:38Z</time>
      </trkpt>
      <trkpt lat="48.46833" lon="6.93621">
        <ele>440.692993</ele>
        <time>2008-10-20T22:55:43Z</time>
      </trkpt>
      <trkpt lat="48.46847" lon="6.93638">
        <ele>439.756012</ele>
        <time>2008-10-20T22:55:49Z</time>
      </trkpt>
      <trkpt lat="48.46869" lon="6.93658">
        <ele>438.502014</ele>
        <time>2008-10-20T22:55:59Z</time>
      </trkpt>
      <trkpt lat="48.46922" lon="6.93715">
        <ele>434.641998</ele>
        <time>2008-10-20T22:56:22Z</time>
      </trkpt>
      <trkpt lat="48.4698" lon="6.93806">
        <ele>431.266998</ele>
        <time>2008-10-20T22:56:52Z</time>
      </trkpt>
      <trkpt lat="48.47002" lon="6.93867">
        <ele>428.364014</ele>
        <time>2008-10-20T22:57:08Z</time>
      </trkpt>
      <trkpt lat="48.46998" lon="6.93908">
        <ele>424.731995</ele>
        <time>2008-10-20T22:57:18Z</time>
      </trkpt>
      <trkpt lat="48.46979" lon="6.93905">
        <ele>423.431</ele>
        <time>2008-10-20T22:57:25Z</time>
      </trkpt>
      <trkpt lat="48.46955" lon="6.93889">
        <ele>420.760986</ele>
        <time>2008-10-20T22:57:35Z</time>
      </trkpt>
      <trkpt lat="48.46949" lon="6.93912">
        <ele>417.174011</ele>
        <time>2008-10-20T22:57:41Z</time>
      </trkpt>
      <trkpt lat="48.46933" lon="6.93983">
        <ele>411.71701</ele>
        <time>2008-10-20T22:57:58Z</time>
      </trkpt>
      <trkpt lat="48.46885" lon="6.93981">
        <ele>408.214996</ele>
        <time>2008-10-20T22:58:16Z</time>
      </trkpt>
      <trkpt lat="48.46878" lon="6.93985">
        <ele>407.647003</ele>
        <time>2008-10-20T22:58:18Z</time>
      </trkpt>
      <trkpt lat="48.46864" lon="6.93995">
        <ele>406.291992</ele>
        <time>2008-10-20T22:58:24Z</time>
      </trkpt>
      <trkpt lat="48.46855" lon="6.94006">
        <ele>404.429993</ele>
        <time>2008-10-20T22:58:28Z</time>
      </trkpt>
      <trkpt lat="48.46856" lon="6.94049">
        <ele>403.166992</ele>
        <time>2008-10-20T22:58:38Z</time>
      </trkpt>
      <trkpt lat="48.46862" lon="6.94073">
        <ele>403.209991</ele>
        <time>2008-10-20T22:58:44Z</time>
      </trkpt>
      <trkpt lat="48.4686" lon="6.94117">
        <ele>403.029999</ele>
        <time>2008-10-20T22:58:55Z</time>
      </trkpt>
      <trkpt lat="48.46854" lon="6.94145">
        <ele>403.925995</ele>
        <time>2008-10-20T22:59:01Z</time>
      </trkpt>
      <trkpt lat="48.46806" lon="6.94185">
        <ele>406.597992</ele>
        <time>2008-10-20T22:59:21Z</time>
      </trkpt>
      <trkpt lat="48.4679" lon="6.94184">
        <ele>406.803986</ele>
        <time>2008-10-20T22:59:27Z</time>
      </trkpt>
      <trkpt lat="48.46741" lon="6.9416">
        <ele>408.64801</ele>
        <time>2008-10-20T22:59:45Z</time>
      </trkpt>
      <trkpt lat="48.46721" lon="6.94148">
        <ele>409.300995</ele>
        <time>2008-10-20T22:59:53Z</time>
      </trkpt>
      <trkpt lat="48.46666" lon="6.94112">
        <ele>411.061005</ele>
        <time>2008-10-20T23:00:15Z</time>
      </trkpt>
      <trkpt lat="48.4658" lon="6.9406">
        <ele>413.738007</ele>
        <time>2008-10-20T23:00:48Z</time>
      </trkpt>
      <trkpt lat="48.46532" lon="6.94">
        <ele>417.063995</ele>
        <time>2008-10-20T23:01:10Z</time>
      </trkpt>
      <trkpt lat="48.46503" lon="6.93966">
        <ele>420.203003</ele>
        <time>2008-10-20T23:01:23Z</time>
      </trkpt>
      <trkpt lat="48.46482" lon="6.93933">
        <ele>422.921997</ele>
        <time>2008-10-20T23:01:34Z</time>
      </trkpt>
      <trkpt lat="48.46463" lon="6.93922">
        <ele>424.674988</ele>
        <time>2008-10-20T23:01:42Z</time>
      </trkpt>
      <trkpt lat="48.46439" lon="6.93928">
        <ele>426.638</ele>
        <time>2008-10-20T23:01:50Z</time>
      </trkpt>
      <trkpt lat="48.46441" lon="6.93924">
        <ele>426.876007</ele>
        <time>2008-10-20T23:01:51Z</time>
      </trkpt>
      <trkpt lat="48.46444" lon="6.93925">
        <ele>427.605011</ele>
        <time>2008-10-20T23:01:52Z</time>
      </trkpt>
      <trkpt lat="48.46447" lon="6.93977">
        <ele>427.608002</ele>
        <time>2008-10-20T23:02:05Z</time>
      </trkpt>
      <trkpt lat="48.46435" lon="6.94031">
        <ele>425.419006</ele>
        <time>2008-10-20T23:02:18Z</time>
      </trkpt>
      <trkpt lat="48.46395" lon="6.94055">
        <ele>423.179993</ele>
        <time>2008-10-20T23:02:34Z</time>
      </trkpt>
      <trkpt lat="48.46344" lon="6.94064">
        <ele>421.799988</ele>
        <time>2008-10-20T23:02:52Z</time>
      </trkpt>
      <trkpt lat="48.46306" lon="6.94073">
        <ele>421.178986</ele>
        <time>2008-10-20T23:03:06Z</time>
      </trkpt>
      <trkpt lat="48.46272" lon="6.94097">
        <ele>420.638</ele>
        <time>2008-10-20T23:03:19Z</time>
      </trkpt>
      <trkpt lat="48.46275" lon="6.94143">
        <ele>420.022003</ele>
        <time>2008-10-20T23:03:31Z</time>
      </trkpt>
      <trkpt lat="48.4628" lon="6.94151">
        <ele>419.723999</ele>
        <time>2008-10-20T23:03:33Z</time>
      </trkpt>
      <trkpt lat="48.46295" lon="6.9421">
        <ele>418.317993</ele>
        <time>2008-10-20T23:03:48Z</time>
      </trkpt>
      <trkpt lat="48.46291" lon="6.94262">
        <ele>416.627991</ele>
        <time>2008-10-20T23:04:01Z</time>
      </trkpt>
      <trkpt lat="48.4628" lon="6.94299">
        <ele>416.437012</ele>
        <time>2008-10-20T23:04:10Z</time>
      </trkpt>
      <trkpt lat="48.46265" lon="6.9432">
        <ele>416.95401</ele>
        <time>2008-10-20T23:04:17Z</time>
      </trkpt>
      <trkpt lat="48.46243" lon="6.94336">
        <ele>418.821014</ele>
        <time>2008-10-20T23:04:26Z</time>
      </trkpt>
      <trkpt lat="48.4622" lon="6.94349">
        <ele>420.368011</ele>
        <time>2008-10-20T23:04:35Z</time>
      </trkpt>
      <trkpt lat="48.46167" lon="6.9436">
        <ele>422.97699</ele>
        <time>2008-10-20T23:04:54Z</time>
      </trkpt>
      <trkpt lat="48.46129" lon="6.94376">
        <ele>425.104004</ele>
        <time>2008-10-20T23:05:08Z</time>
      </trkpt>
      <trkpt lat="48.46116" lon="6.94398">
        <ele>425.917999</ele>
        <time>2008-10-20T23:05:15Z</time>
      </trkpt>
      <trkpt lat="48.46103" lon="6.94455">
        <ele>427.247986</ele>
        <time>2008-10-20T23:05:30Z</time>
      </trkpt>
      <trkpt lat="48.46068" lon="6.94468">
        <ele>429.109985</ele>
        <time>2008-10-20T23:05:43Z</time>
      </trkpt>
      <trkpt lat="48.46027" lon="6.94466">
        <ele>429.330994</ele>
        <time>2008-10-20T23:05:57Z</time>
      </trkpt>
      <trkpt lat="48.45985" lon="6.94454">
        <ele>429.238007</ele>
        <time>2008-10-20T23:06:12Z</time>
      </trkpt>
      <trkpt lat="48.45955" lon="6.94451">
        <ele>428.315002</ele>
        <time>2008-10-20T23:06:24Z</time>
      </trkpt>
      <trkpt lat="48.45939" lon="6.94449">
        <ele>427.285004</ele>
        <time>2008-10-20T23:06:29Z</time>
      </trkpt>
      <trkpt lat="48.45882" lon="6.94423">
        <ele>424.531006</ele>
        <time>2008-10-20T23:06:51Z</time>
      </trkpt>
      <trkpt lat="48.45857" lon="6.94408">
        <ele>423.394989</ele>
        <time>2008-10-20T23:07:00Z</time>
      </trkpt>
      <trkpt lat="48.4582" lon="6.9441">
        <ele>422.552002</ele>
        <time>2008-10-20T23:07:13Z</time>
      </trkpt>
      <trkpt lat="48.45782" lon="6.94416">
        <ele>420.891998</ele>
        <time>2008-10-20T23:07:27Z</time>
      </trkpt>
      <trkpt lat="48.45763" lon="6.94411">
        <ele>420.177002</ele>
        <time>2008-10-20T23:07:34Z</time>
      </trkpt>
      <trkpt lat="48.45716" lon="6.94384">
        <ele>418.609985</ele>
        <time>2008-10-20T23:07:52Z</time>
      </trkpt>
      <trkpt lat="48.45675" lon="6.94342">
        <ele>418.102997</ele>
        <time>2008-10-20T23:08:10Z</time>
      </trkpt>
      <trkpt lat="48.45634" lon="6.94291">
        <ele>416.973999</ele>
        <time>2008-10-20T23:08:29Z</time>
      </trkpt>
      <trkpt lat="48.45627" lon="6.94279">
        <ele>416.882996</ele>
        <time>2008-10-20T23:08:33Z</time>
      </trkpt>
      <trkpt lat="48.45617" lon="6.94259">
        <ele>416.378998</ele>
        <time>2008-10-20T23:08:39Z</time>
      </trkpt>
      <trkpt lat="48.45567" lon="6.94189">
        <ele>412.35199</ele>
        <time>2008-10-20T23:09:03Z</time>
      </trkpt>
      <trkpt lat="48.45553" lon="6.94154">
        <ele>410.64801</ele>
        <time>2008-10-20T23:09:13Z</time>
      </trkpt>
      <trkpt lat="48.45549" lon="6.9411">
        <ele>410.450989</ele>
        <time>2008-10-20T23:09:24Z</time>
      </trkpt>
      <trkpt lat="48.45547" lon="6.94127">
        <ele>410.227997</ele>
        <time>2008-10-20T23:09:28Z</time>
      </trkpt>
      <trkpt lat="48.45548" lon="6.9411">
        <ele>410.649994</ele>
        <time>2008-10-20T23:09:32Z</time>
      </trkpt>
      <trkpt lat="48.4555" lon="6.94093">
        <ele>411.016998</ele>
        <time>2008-10-20T23:09:36Z</time>
      </trkpt>
      <trkpt lat="48.45567" lon="6.94046">
        <ele>411.791992</ele>
        <time>2008-10-20T23:09:49Z</time>
      </trkpt>
      <trkpt lat="48.45573" lon="6.93995">
        <ele>412.471008</ele>
        <time>2008-10-20T23:10:01Z</time>
      </trkpt>
      <trkpt lat="48.45565" lon="6.9392">
        <ele>412.915985</ele>
        <time>2008-10-20T23:10:19Z</time>
      </trkpt>
      <trkpt lat="48.45557" lon="6.93844">
        <ele>413.664001</ele>
        <time>2008-10-20T23:10:37Z</time>
      </trkpt>
      <trkpt lat="48.45551" lon="6.93815">
        <ele>414.278015</ele>
        <time>2008-10-20T23:10:44Z</time>
      </trkpt>
      <trkpt lat="48.45542" lon="6.93792">
        <ele>414.621002</ele>
        <time>2008-10-20T23:10:51Z</time>
      </trkpt>
      <trkpt lat="48.45535" lon="6.93758">
        <ele>415.278015</ele>
        <time>2008-10-20T23:10:59Z</time>
      </trkpt>
      <trkpt lat="48.45522" lon="6.93732">
        <ele>415.373993</ele>
        <time>2008-10-20T23:11:07Z</time>
      </trkpt>
      <trkpt lat="48.45513" lon="6.93725">
        <ele>415.428986</ele>
        <time>2008-10-20T23:11:11Z</time>
      </trkpt>
      <trkpt lat="48.45462" lon="6.93659">
        <ele>415.127991</ele>
        <time>2008-10-20T23:11:35Z</time>
      </trkpt>
      <trkpt lat="48.45443" lon="6.93601">
        <ele>417.613007</ele>
        <time>2008-10-20T23:11:50Z</time>
      </trkpt>
      <trkpt lat="48.45474" lon="6.93557">
        <ele>420.667999</ele>
        <time>2008-10-20T23:12:05Z</time>
      </trkpt>
      <trkpt lat="48.45498" lon="6.93523">
        <ele>424.049988</ele>
        <time>2008-10-20T23:12:17Z</time>
      </trkpt>
      <trkpt lat="48.45531" lon="6.93492">
        <ele>426.225006</ele>
        <time>2008-10-20T23:12:31Z</time>
      </trkpt>
      <trkpt lat="48.45559" lon="6.93474">
        <ele>428.509003</ele>
        <time>2008-10-20T23:12:42Z</time>
      </trkpt>
      <trkpt lat="48.45594" lon="6.93457">
        <ele>431.733002</ele>
        <time>2008-10-20T23:12:55Z</time>
      </trkpt>
      <trkpt lat="48.45636" lon="6.93441">
        <ele>434.692993</ele>
        <time>2008-10-20T23:13:11Z</time>
      </trkpt>
      <trkpt lat="48.45683" lon="6.93446">
        <ele>437.38501</ele>
        <time>2008-10-20T23:13:27Z</time>
      </trkpt>
      <trkpt lat="48.4573" lon="6.93473">
        <ele>438.714996</ele>
        <time>2008-10-20T23:13:46Z</time>
      </trkpt>
      <trkpt lat="48.45763" lon="6.93518">
        <ele>440.742004</ele>
        <time>2008-10-20T23:14:02Z</time>
      </trkpt>
      <trkpt lat="48.45797" lon="6.93572">
        <ele>443.322998</ele>
        <time>2008-10-20T23:14:19Z</time>
      </trkpt>
      <trkpt lat="48.45828" lon="6.93573">
        <ele>443.618011</ele>
        <time>2008-10-20T23:14:30Z</time>
      </trkpt>
      <trkpt lat="48.45841" lon="6.93553">
        <ele>442.938995</ele>
        <time>2008-10-20T23:14:37Z</time>
      </trkpt>
      <trkpt lat="48.45858" lon="6.93498">
        <ele>440.221008</ele>
        <time>2008-10-20T23:14:52Z</time>
      </trkpt>
      <trkpt lat="48.45875" lon="6.93466">
        <ele>438.852997</ele>
        <time>2008-10-20T23:15:01Z</time>
      </trkpt>
      <trkpt lat="48.459" lon="6.93437">
        <ele>437.886993</ele>
        <time>2008-10-20T23:15:13Z</time>
      </trkpt>
      <trkpt lat="48.45923" lon="6.93427">
        <ele>437.270996</ele>
        <time>2008-10-20T23:15:21Z</time>
      </trkpt>
      <trkpt lat="48.45991" lon="6.93441">
        <ele>437.79599</ele>
        <time>2008-10-20T23:15:46Z</time>
      </trkpt>
      <trkpt lat="48.46012" lon="6.93453">
        <ele>438.571991</ele>
        <time>2008-10-20T23:15:54Z</time>
      </trkpt>
      <trkpt lat="48.46041" lon="6.93486">
        <ele>442.101013</ele>
        <time>2008-10-20T23:16:07Z</time>
      </trkpt>
      <trkpt lat="48.4605" lon="6.93497">
        <ele>442.712006</ele>
        <time>2008-10-20T23:16:11Z</time>
      </trkpt>
      <trkpt lat="48.46056" lon="6.93484">
        <ele>442.548004</ele>
        <time>2008-10-20T23:16:15Z</time>
      </trkpt>
      <trkpt lat="48.46064" lon="6.9347">
        <ele>442.799988</ele>
        <time>2008-10-20T23:16:19Z</time>
      </trkpt>
      <trkpt lat="48.46093" lon="6.93428">
        <ele>442.764008</ele>
        <time>2008-10-20T23:16:34Z</time>
      </trkpt>
      <trkpt lat="48.46096" lon="6.9341">
        <ele>442.402008</ele>
        <time>2008-10-20T23:16:38Z</time>
      </trkpt>
      <trkpt lat="48.46081" lon="6.93362">
        <ele>441.730988</ele>
        <time>2008-10-20T23:16:51Z</time>
      </trkpt>
      <trkpt lat="48.46068" lon="6.93296">
        <ele>440.213989</ele>
        <time>2008-10-20T23:17:07Z</time>
      </trkpt>
      <trkpt lat="48.46062" lon="6.93268">
        <ele>439.356995</ele>
        <time>2008-10-20T23:17:14Z</time>
      </trkpt>
      <trkpt lat="48.46046" lon="6.93234">
        <ele>438.424988</ele>
        <time>2008-10-20T23:17:24Z</time>
      </trkpt>
      <trkpt lat="48.46033" lon="6.93204">
        <ele>437.299011</ele>
        <time>2008-10-20T23:17:33Z</time>
      </trkpt>
      <trkpt lat="48.46023" lon="6.93187">
        <ele>437.287994</ele>
        <time>2008-10-20T23:17:38Z</time>
      </trkpt>
      <trkpt lat="48.45959" lon="6.93133">
        <ele>437.720001</ele>
        <time>2008-10-20T23:18:04Z</time>
      </trkpt>
      <trkpt lat="48.45942" lon="6.93115">
        <ele>437.373993</ele>
        <time>2008-10-20T23:18:12Z</time>
      </trkpt>
      <trkpt lat="48.45924" lon="6.931">
        <ele>436.727997</ele>
        <time>2008-10-20T23:18:19Z</time>
      </trkpt>
      <trkpt lat="48.45913" lon="6.93093">
        <ele>435.648987</ele>
        <time>2008-10-20T23:18:24Z</time>
      </trkpt>
      <trkpt lat="48.45887" lon="6.93075">
        <ele>434.070007</ele>
        <time>2008-10-20T23:18:34Z</time>
      </trkpt>
      <trkpt lat="48.45829" lon="6.93027">
        <ele>430.807007</ele>
        <time>2008-10-20T23:18:58Z</time>
      </trkpt>
      <trkpt lat="48.45801" lon="6.93015">
        <ele>428.757996</ele>
        <time>2008-10-20T23:19:08Z</time>
      </trkpt>
      <trkpt lat="48.45788" lon="6.93009">
        <ele>428.053009</ele>
        <time>2008-10-20T23:19:13Z</time>
      </trkpt>
      <trkpt lat="48.45752" lon="6.92995">
        <ele>426.036011</ele>
        <time>2008-10-20T23:19:26Z</time>
      </trkpt>
      <trkpt lat="48.45708" lon="6.92977">
        <ele>424.334015</ele>
        <time>2008-10-20T23:19:43Z</time>
      </trkpt>
      <trkpt lat="48.45661" lon="6.92989">
        <ele>422.088989</ele>
        <time>2008-10-20T23:20:00Z</time>
      </trkpt>
      <trkpt lat="48.45588" lon="6.93034">
        <ele>417.765015</ele>
        <time>2008-10-20T23:20:28Z</time>
      </trkpt>
      <trkpt lat="48.45541" lon="6.93036">
        <ele>414.450989</ele>
        <time>2008-10-20T23:20:45Z</time>
      </trkpt>
      <trkpt lat="48.45514" lon="6.93033">
        <ele>412.946991</ele>
        <time>2008-10-20T23:20:55Z</time>
      </trkpt>
      <trkpt lat="48.45493" lon="6.93028">
        <ele>412.272003</ele>
        <time>2008-10-20T23:21:02Z</time>
      </trkpt>
      <trkpt lat="48.45478" lon="6.93024">
        <ele>411.098999</ele>
        <time>2008-10-20T23:21:08Z</time>
      </trkpt>
      <trkpt lat="48.45431" lon="6.93026">
        <ele>407.847992</ele>
        <time>2008-10-20T23:21:24Z</time>
      </trkpt>
      <trkpt lat="48.45388" lon="6.93074">
        <ele>405.61499</ele>
        <time>2008-10-20T23:21:44Z</time>
      </trkpt>
      <trkpt lat="48.45384" lon="6.9308">
        <ele>405.398987</ele>
        <time>2008-10-20T23:21:46Z</time>
      </trkpt>
      <trkpt lat="48.45324" lon="6.93117">
        <ele>403.971985</ele>
        <time>2008-10-20T23:22:09Z</time>
      </trkpt>
      <trkpt lat="48.45307" lon="6.93122">
        <ele>402.954987</ele>
        <time>2008-10-20T23:22:15Z</time>
      </trkpt>
      <trkpt lat="48.45297" lon="6.93131">
        <ele>402.187012</ele>
        <time>2008-10-20T23:22:19Z</time>
      </trkpt>
      <trkpt lat="48.45286" lon="6.93141">
        <ele>402.002991</ele>
        <time>2008-10-20T23:22:24Z</time>
      </trkpt>
      <trkpt lat="48.45274" lon="6.93142">
        <ele>402.660004</ele>
        <time>2008-10-20T23:22:28Z</time>
      </trkpt>
      <trkpt lat="48.45253" lon="6.93153">
        <ele>404.031006</ele>
        <time>2008-10-20T23:22:36Z</time>
      </trkpt>
      <trkpt lat="48.4525" lon="6.93155">
        <ele>404.006989</ele>
        <time>2008-10-20T23:22:38Z</time>
      </trkpt>
      <trkpt lat="48.45207" lon="6.93168">
        <ele>405.144989</ele>
        <time>2008-10-20T23:22:53Z</time>
      </trkpt>
      <trkpt lat="48.4516" lon="6.9318">
        <ele>406.147003</ele>
        <time>2008-10-20T23:23:10Z</time>
      </trkpt>
      <trkpt lat="48.45119" lon="6.9319">
        <ele>407.411987</ele>
        <time>2008-10-20T23:23:25Z</time>
      </trkpt>
      <trkpt lat="48.4508" lon="6.9318">
        <ele>409.191986</ele>
        <time>2008-10-20T23:23:39Z</time>
      </trkpt>
      <trkpt lat="48.45036" lon="6.93149">
        <ele>409.838989</ele>
        <time>2008-10-20T23:23:57Z</time>
      </trkpt>
      <trkpt lat="48.44996" lon="6.93137">
        <ele>408.95401</ele>
        <time>2008-10-20T23:24:12Z</time>
      </trkpt>
      <trkpt lat="48.44958" lon="6.9312">
        <ele>407.86499</ele>
        <time>2008-10-20T23:24:26Z</time>
      </trkpt>
      <trkpt lat="48.44954" lon="6.93118">
        <ele>407.718994</ele>
        <time>2008-10-20T23:24:27Z</time>
      </trkpt>
      <trkpt lat="48.44902" lon="6.93077">
        <ele>407.097992</ele>
        <time>2008-10-20T23:24:48Z</time>
      </trkpt>
      <trkpt lat="48.44885" lon="6.93063">
        <ele>407.256989</ele>
        <time>2008-10-20T23:24:55Z</time>
      </trkpt>
      <trkpt lat="48.44862" lon="6.93046">
        <ele>407.209015</ele>
        <time>2008-10-20T23:25:04Z</time>
      </trkpt>
      <trkpt lat="48.44833" lon="6.93023">
        <ele>406.813995</ele>
        <time>2008-10-20T23:25:16Z</time>
      </trkpt>
      <trkpt lat="48.44806" lon="6.92983">
        <ele>406.437988</ele>
        <time>2008-10-20T23:25:30Z</time>
      </trkpt>
      <trkpt lat="48.44767" lon="6.92959">
        <ele>405.415009</ele>
        <time>2008-10-20T23:25:45Z</time>
      </trkpt>
      <trkpt lat="48.44749" lon="6.92945">
        <ele>404.585999</ele>
        <time>2008-10-20T23:25:52Z</time>
      </trkpt>
      <trkpt lat="48.44702" lon="6.92902">
        <ele>402.218994</ele>
        <time>2008-10-20T23:26:12Z</time>
      </trkpt>
      <trkpt lat="48.44656" lon="6.92878">
        <ele>400.417999</ele>
        <time>2008-10-20T23:26:29Z</time>
      </trkpt>
      <trkpt lat="48.4463" lon="6.92873">
        <ele>398.640015</ele>
        <time>2008-10-20T23:26:39Z</time>
      </trkpt>
      <trkpt lat="48.4459" lon="6.92865">
        <ele>396.977997</ele>
        <time>2008-10-20T23:26:53Z</time>
      </trkpt>
      <trkpt lat="48.44578" lon="6.92864">
        <ele>396.868011</ele>
        <time>2008-10-20T23:26:58Z</time>
      </trkpt>
      <trkpt lat="48.44565" lon="6.92864">
        <ele>396.575012</ele>
        <time>2008-10-20T23:27:02Z</time>
      </trkpt>
      <trkpt lat="48.44555" lon="6.92865">
        <ele>396.811005</ele>
        <time>2008-10-20T23:27:06Z</time>
      </trkpt>
      <trkpt lat="48.44546" lon="6.92864">
        <ele>396.420013</ele>
        <time>2008-10-20T23:27:09Z</time>
      </trkpt>
      <trkpt lat="48.44545" lon="6.92861">
        <ele>396.136993</ele>
        <time>2008-10-20T23:27:10Z</time>
      </trkpt>
      <trkpt lat="48.44519" lon="6.92849">
        <ele>395.177002</ele>
        <time>2008-10-20T23:27:19Z</time>
      </trkpt>
      <trkpt lat="48.44485" lon="6.9284">
        <ele>393.742004</ele>
        <time>2008-10-20T23:27:32Z</time>
      </trkpt>
      <trkpt lat="48.44458" lon="6.92836">
        <ele>391.803009</ele>
        <time>2008-10-20T23:27:42Z</time>
      </trkpt>
      <trkpt lat="48.44439" lon="6.92828">
        <ele>390.455994</ele>
        <time>2008-10-20T23:27:49Z</time>
      </trkpt>
      <trkpt lat="48.44412" lon="6.92812">
        <ele>387.697998</ele>
        <time>2008-10-20T23:27:59Z</time>
      </trkpt>
      <trkpt lat="48.44388" lon="6.92795">
        <ele>386.279999</ele>
        <time>2008-10-20T23:28:09Z</time>
      </trkpt>
      <trkpt lat="48.44362" lon="6.9277">
        <ele>384.390015</ele>
        <time>2008-10-20T23:28:20Z</time>
      </trkpt>
      <trkpt lat="48.44336" lon="6.92735">
        <ele>382.727997</ele>
        <time>2008-10-20T23:28:32Z</time>
      </trkpt>
      <trkpt lat="48.4432" lon="6.92699">
        <ele>382.024994</ele>
        <time>2008-10-20T23:28:43Z</time>
      </trkpt>
      <trkpt lat="48.44296" lon="6.92648">
        <ele>381.30899</ele>
        <time>2008-10-20T23:28:58Z</time>
      </trkpt>
      <trkpt lat="48.44289" lon="6.92598">
        <ele>382.042999</ele>
        <time>2008-10-20T23:29:10Z</time>
      </trkpt>
      <trkpt lat="48.44291" lon="6.92584">
        <ele>382.662994</ele>
        <time>2008-10-20T23:29:13Z</time>
      </trkpt>
      <trkpt lat="48.44299" lon="6.92563">
        <ele>383.806</ele>
        <time>2008-10-20T23:29:19Z</time>
      </trkpt>
      <trkpt lat="48.44333" lon="6.92523">
        <ele>386.519012</ele>
        <time>2008-10-20T23:29:34Z</time>
      </trkpt>
      <trkpt lat="48.44361" lon="6.92506">
        <ele>388.423004</ele>
        <time>2008-10-20T23:29:45Z</time>
      </trkpt>
      <trkpt lat="48.444" lon="6.92483">
        <ele>391.459991</ele>
        <time>2008-10-20T23:30:00Z</time>
      </trkpt>
      <trkpt lat="48.4444" lon="6.92457">
        <ele>393.834015</ele>
        <time>2008-10-20T23:30:16Z</time>
      </trkpt>
      <trkpt lat="48.44476" lon="6.92444">
        <ele>394.769012</ele>
        <time>2008-10-20T23:30:29Z</time>
      </trkpt>
      <trkpt lat="48.44518" lon="6.92432">
        <ele>394.184998</ele>
        <time>2008-10-20T23:30:44Z</time>
      </trkpt>
      <trkpt lat="48.44531" lon="6.9243">
        <ele>393.764008</ele>
        <time>2008-10-20T23:30:49Z</time>
      </trkpt>
      <trkpt lat="48.44573" lon="6.92433">
        <ele>393.003998</ele>
        <time>2008-10-20T23:31:04Z</time>
      </trkpt>
      <trkpt lat="48.4461" lon="6.92443">
        <ele>392</ele>
        <time>2008-10-20T23:31:17Z</time>
      </trkpt>
      <trkpt lat="48.44627" lon="6.9245">
        <ele>390.73999</ele>
        <time>2008-10-20T23:31:24Z</time>
      </trkpt>
      <trkpt lat="48.4465" lon="6.9246">
        <ele>389.696991</ele>
        <time>2008-10-20T23:31:32Z</time>
      </trkpt>
      <trkpt lat="48.44682" lon="6.92486">
        <ele>389.109985</ele>
        <time>2008-10-20T23:31:45Z</time>
      </trkpt>
      <trkpt lat="48.44718" lon="6.92531">
        <ele>390.078003</ele>
        <time>2008-10-20T23:32:02Z</time>
      </trkpt>
      <trkpt lat="48.44729" lon="6.92552">
        <ele>391.364014</ele>
        <time>2008-10-20T23:32:09Z</time>
      </trkpt>
      <trkpt lat="48.44743" lon="6.92573">
        <ele>392.713989</ele>
        <time>2008-10-20T23:32:16Z</time>
      </trkpt>
      <trkpt lat="48.44774" lon="6.92601">
        <ele>394.071991</ele>
        <time>2008-10-20T23:32:29Z</time>
      </trkpt>
      <trkpt lat="48.44803" lon="6.92604">
        <ele>394.101013</ele>
        <time>2008-10-20T23:32:39Z</time>
      </trkpt>
      <trkpt lat="48.44827" lon="6.92591">
        <ele>393.380005</ele>
        <time>2008-10-20T23:32:49Z</time>
      </trkpt>
      <trkpt lat="48.44838" lon="6.92562">
        <ele>391.290009</ele>
        <time>2008-10-20T23:32:56Z</time>
      </trkpt>
      <trkpt lat="48.44847" lon="6.92531">
        <ele>389.727997</ele>
        <time>2008-10-20T23:33:05Z</time>
      </trkpt>
      <trkpt lat="48.44868" lon="6.92495">
        <ele>388.497009</ele>
        <time>2008-10-20T23:33:16Z</time>
      </trkpt>
      <trkpt lat="48.44879" lon="6.92477">
        <ele>388.243011</ele>
        <time>2008-10-20T23:33:22Z</time>
      </trkpt>
      <trkpt lat="48.44918" lon="6.92451">
        <ele>388.446014</ele>
        <time>2008-10-20T23:33:37Z</time>
      </trkpt>
      <trkpt lat="48.44939" lon="6.92443">
        <ele>388.921997</ele>
        <time>2008-10-20T23:33:45Z</time>
      </trkpt>
      <trkpt lat="48.44962" lon="6.92437">
        <ele>389.231995</ele>
        <time>2008-10-20T23:33:53Z</time>
      </trkpt>
      <trkpt lat="48.45005" lon="6.92425">
        <ele>390.13501</ele>
        <time>2008-10-20T23:34:09Z</time>
      </trkpt>
      <trkpt lat="48.45021" lon="6.92423">
        <ele>390.510986</ele>
        <time>2008-10-20T23:34:15Z</time>
      </trkpt>
      <trkpt lat="48.45095" lon="6.92437">
        <ele>391.437012</ele>
        <time>2008-10-20T23:34:42Z</time>
      </trkpt>
      <trkpt lat="48.45142" lon="6.92471">
        <ele>391.871002</ele>
        <time>2008-10-20T23:35:00Z</time>
      </trkpt>
      <trkpt lat="48.45156" lon="6.92495">
        <ele>392.411987</ele>
        <time>2008-10-20T23:35:08Z</time>
      </trkpt>
      <trkpt lat="48.45161" lon="6.92509">
        <ele>392.312988</ele>
        <time>2008-10-20T23:35:12Z</time>
      </trkpt>
      <trkpt lat="48.45172" lon="6.92546">
        <ele>392.815002</ele>
        <time>2008-10-20T23:35:21Z</time>
      </trkpt>
      <trkpt lat="48.45189" lon="6.92571">
        <ele>391.553986</ele>
        <time>2008-10-20T23:35:30Z</time>
      </trkpt>
      <trkpt lat="48.4521" lon="6.92576">
        <ele>388.02301</ele>
        <time>2008-10-20T23:35:37Z</time>
      </trkpt>
      <trkpt lat="48.4524" lon="6.92563">
        <ele>388.52301</ele>
        <time>2008-10-20T23:35:48Z</time>
      </trkpt>
      <trkpt lat="48.45256" lon="6.92552">
        <ele>389.837006</ele>
        <time>2008-10-20T23:35:55Z</time>
      </trkpt>
      <trkpt lat="48.45283" lon="6.92539">
        <ele>391.175995</ele>
        <time>2008-10-20T23:36:05Z</time>
      </trkpt>
      <trkpt lat="48.45298" lon="6.92528">
        <ele>391.700989</ele>
        <time>2008-10-20T23:36:11Z</time>
      </trkpt>
      <trkpt lat="48.45307" lon="6.92506">
        <ele>392.868988</ele>
        <time>2008-10-20T23:36:17Z</time>
      </trkpt>
      <trkpt lat="48.45305" lon="6.92477">
        <ele>393.294006</ele>
        <time>2008-10-20T23:36:24Z</time>
      </trkpt>
      <trkpt lat="48.45311" lon="6.92461">
        <ele>393.838989</ele>
        <time>2008-10-20T23:36:28Z</time>
      </trkpt>
      <trkpt lat="48.45312" lon="6.92431">
        <ele>394.388</ele>
        <time>2008-10-20T23:36:36Z</time>
      </trkpt>
      <trkpt lat="48.45314" lon="6.92415">
        <ele>394.579987</ele>
        <time>2008-10-20T23:36:39Z</time>
      </trkpt>
      <trkpt lat="48.45316" lon="6.92391">
        <ele>395.07901</ele>
        <time>2008-10-20T23:36:45Z</time>
      </trkpt>
      <trkpt lat="48.45319" lon="6.92359">
        <ele>395.167999</ele>
        <time>2008-10-20T23:36:53Z</time>
      </trkpt>
      <trkpt lat="48.45328" lon="6.9231">
        <ele>395.609009</ele>
        <time>2008-10-20T23:37:05Z</time>
      </trkpt>
      <trkpt lat="48.45335" lon="6.9225">
        <ele>396.259003</ele>
        <time>2008-10-20T23:37:19Z</time>
      </trkpt>
      <trkpt lat="48.45349" lon="6.92218">
        <ele>396.673004</ele>
        <time>2008-10-20T23:37:28Z</time>
      </trkpt>
      <trkpt lat="48.4537" lon="6.92185">
        <ele>397.201996</ele>
        <time>2008-10-20T23:37:39Z</time>
      </trkpt>
      <trkpt lat="48.45399" lon="6.92135">
        <ele>397.487</ele>
        <time>2008-10-20T23:37:55Z</time>
      </trkpt>
      <trkpt lat="48.45404" lon="6.92134">
        <ele>397.683014</ele>
        <time>2008-10-20T23:37:57Z</time>
      </trkpt>
      <trkpt lat="48.45422" lon="6.92121">
        <ele>398.151001</ele>
        <time>2008-10-20T23:38:04Z</time>
      </trkpt>
      <trkpt lat="48.4543" lon="6.92111">
        <ele>398.73999</ele>
        <time>2008-10-20T23:38:08Z</time>
      </trkpt>
      <trkpt lat="48.45436" lon="6.92101">
        <ele>398.98999</ele>
        <time>2008-10-20T23:38:11Z</time>
      </trkpt>
      <trkpt lat="48.45438" lon="6.921">
        <ele>398.713989</ele>
        <time>2008-10-20T23:38:12Z</time>
      </trkpt>
      <trkpt lat="48.45448" lon="6.92089">
        <ele>399.531006</ele>
        <time>2008-10-20T23:38:16Z</time>
      </trkpt>
      <trkpt lat="48.45448" lon="6.92086">
        <ele>399.207001</ele>
        <time>2008-10-20T23:38:17Z</time>
      </trkpt>
      <trkpt lat="48.4544" lon="6.92086">
        <ele>398.806</ele>
        <time>2008-10-20T23:38:19Z</time>
      </trkpt>
      <trkpt lat="48.45432" lon="6.9208">
        <ele>398.979004</ele>
        <time>2008-10-20T23:38:23Z</time>
      </trkpt>
      <trkpt lat="48.45427" lon="6.92081">
        <ele>398.367004</ele>
        <time>2008-10-20T23:38:24Z</time>
      </trkpt>
      <trkpt lat="48.45428" lon="6.92085">
        <ele>398.365997</ele>
        <time>2008-10-20T23:38:26Z</time>
      </trkpt>
      <trkpt lat="48.45431" lon="6.92084">
        <ele>398.348999</ele>
        <time>2008-10-20T23:38:27Z</time>
      </trkpt>
      <trkpt lat="48.4543" lon="6.92082">
        <ele>397.279999</ele>
        <time>2008-10-20T23:38:27Z</time>
      </trkpt>
      <trkpt lat="48.4543" lon="6.92082">
        <ele>397.296997</ele>
        <time>2008-10-20T23:38:27Z</time>
      </trkpt>
      <trkpt lat="48.45419" lon="6.9206">
        <ele>397.296997</ele>
        <time>2008-10-20T23:38:34Z</time>
      </trkpt>
      <trkpt lat="48.45392" lon="6.91999">
        <ele>397.803986</ele>
        <time>2008-10-20T23:38:51Z</time>
      </trkpt>
      <trkpt lat="48.4537" lon="6.91941">
        <ele>397.872986</ele>
        <time>2008-10-20T23:39:07Z</time>
      </trkpt>
      <trkpt lat="48.45344" lon="6.91877">
        <ele>397.752991</ele>
        <time>2008-10-20T23:39:25Z</time>
      </trkpt>
      <trkpt lat="48.4533" lon="6.91841">
        <ele>397.552002</ele>
        <time>2008-10-20T23:39:35Z</time>
      </trkpt>
      <trkpt lat="48.45289" lon="6.91741">
        <ele>396.881012</ele>
        <time>2008-10-20T23:40:03Z</time>
      </trkpt>
      <trkpt lat="48.45284" lon="6.9173">
        <ele>396.923004</ele>
        <time>2008-10-20T23:40:06Z</time>
      </trkpt>
      <trkpt lat="48.45293" lon="6.91689">
        <ele>397.330994</ele>
        <time>2008-10-20T23:40:16Z</time>
      </trkpt>
      <trkpt lat="48.45297" lon="6.91686">
        <ele>397.770996</ele>
        <time>2008-10-20T23:40:18Z</time>
      </trkpt>
      <trkpt lat="48.45327" lon="6.91662">
        <ele>401.329987</ele>
        <time>2008-10-20T23:40:30Z</time>
      </trkpt>
      <trkpt lat="48.45337" lon="6.91656">
        <ele>401.85199</ele>
        <time>2008-10-20T23:40:34Z</time>
      </trkpt>
      <trkpt lat="48.45355" lon="6.91623">
        <ele>401.994995</ele>
        <time>2008-10-20T23:40:44Z</time>
      </trkpt>
      <trkpt lat="48.45353" lon="6.91562">
        <ele>402.946014</ele>
        <time>2008-10-20T23:40:58Z</time>
      </trkpt>
      <trkpt lat="48.45318" lon="6.91508">
        <ele>406.003998</ele>
        <time>2008-10-20T23:41:16Z</time>
      </trkpt>
      <trkpt lat="48.45281" lon="6.91473">
        <ele>407.929993</ele>
        <time>2008-10-20T23:41:32Z</time>
      </trkpt>
      <trkpt lat="48.4525" lon="6.91433">
        <ele>408.135986</ele>
        <time>2008-10-20T23:41:47Z</time>
      </trkpt>
      <trkpt lat="48.45246" lon="6.91429">
        <ele>408.165009</ele>
        <time>2008-10-20T23:41:48Z</time>
      </trkpt>
      <trkpt lat="48.45227" lon="6.91402">
        <ele>408.609985</ele>
        <time>2008-10-20T23:41:58Z</time>
      </trkpt>
      <trkpt lat="48.45197" lon="6.91332">
        <ele>410.545013</ele>
        <time>2008-10-20T23:42:18Z</time>
      </trkpt>
      <trkpt lat="48.45174" lon="6.9127">
        <ele>412.558014</ele>
        <time>2008-10-20T23:42:34Z</time>
      </trkpt>
      <trkpt lat="48.45191" lon="6.91203">
        <ele>413.415985</ele>
        <time>2008-10-20T23:42:51Z</time>
      </trkpt>
      <trkpt lat="48.45227" lon="6.91197">
        <ele>414.566986</ele>
        <time>2008-10-20T23:43:05Z</time>
      </trkpt>
      <trkpt lat="48.45272" lon="6.91198">
        <ele>413.971985</ele>
        <time>2008-10-20T23:43:21Z</time>
      </trkpt>
      <trkpt lat="48.45283" lon="6.91199">
        <ele>414.091003</ele>
        <time>2008-10-20T23:43:25Z</time>
      </trkpt>
      <trkpt lat="48.45348" lon="6.9119">
        <ele>414.562988</ele>
        <time>2008-10-20T23:43:48Z</time>
      </trkpt>
      <trkpt lat="48.45366" lon="6.91172">
        <ele>414.358002</ele>
        <time>2008-10-20T23:43:56Z</time>
      </trkpt>
      <trkpt lat="48.45376" lon="6.91154">
        <ele>414.605011</ele>
        <time>2008-10-20T23:44:01Z</time>
      </trkpt>
      <trkpt lat="48.45382" lon="6.91143">
        <ele>414.712006</ele>
        <time>2008-10-20T23:44:05Z</time>
      </trkpt>
      <trkpt lat="48.45391" lon="6.91133">
        <ele>414.145996</ele>
        <time>2008-10-20T23:44:09Z</time>
      </trkpt>
      <trkpt lat="48.45399" lon="6.91121">
        <ele>414.105011</ele>
        <time>2008-10-20T23:44:13Z</time>
      </trkpt>
      <trkpt lat="48.45406" lon="6.91101">
        <ele>414.050995</ele>
        <time>2008-10-20T23:44:18Z</time>
      </trkpt>
      <trkpt lat="48.45406" lon="6.91077">
        <ele>414.002014</ele>
        <time>2008-10-20T23:44:24Z</time>
      </trkpt>
      <trkpt lat="48.45401" lon="6.91043">
        <ele>413.960999</ele>
        <time>2008-10-20T23:44:32Z</time>
      </trkpt>
      <trkpt lat="48.45395" lon="6.9102">
        <ele>413.90799</ele>
        <time>2008-10-20T23:44:38Z</time>
      </trkpt>
      <trkpt lat="48.45345" lon="6.90919">
        <ele>413.618988</ele>
        <time>2008-10-20T23:45:08Z</time>
      </trkpt>
      <trkpt lat="48.45286" lon="6.90813">
        <ele>413.412994</ele>
        <time>2008-10-20T23:45:41Z</time>
      </trkpt>
      <trkpt lat="48.45266" lon="6.90781">
        <ele>412.945007</ele>
        <time>2008-10-20T23:45:51Z</time>
      </trkpt>
      <trkpt lat="48.45218" lon="6.90688">
        <ele>412.359985</ele>
        <time>2008-10-20T23:46:20Z</time>
      </trkpt>
      <trkpt lat="48.45219" lon="6.90623">
        <ele>411.462006</ele>
        <time>2008-10-20T23:46:35Z</time>
      </trkpt>
      <trkpt lat="48.45229" lon="6.90616">
        <ele>411.605011</ele>
        <time>2008-10-20T23:46:39Z</time>
      </trkpt>
      <trkpt lat="48.4525" lon="6.90605">
        <ele>411.847992</ele>
        <time>2008-10-20T23:46:47Z</time>
      </trkpt>
      <trkpt lat="48.45293" lon="6.9059">
        <ele>412.838013</ele>
        <time>2008-10-20T23:47:03Z</time>
      </trkpt>
      <trkpt lat="48.45365" lon="6.90598">
        <ele>412.695007</ele>
        <time>2008-10-20T23:47:29Z</time>
      </trkpt>
      <trkpt lat="48.45388" lon="6.90606">
        <ele>412.46701</ele>
        <time>2008-10-20T23:47:37Z</time>
      </trkpt>
      <trkpt lat="48.45451" lon="6.90649">
        <ele>411.506989</ele>
        <time>2008-10-20T23:48:02Z</time>
      </trkpt>
      <trkpt lat="48.45483" lon="6.90671">
        <ele>411.294006</ele>
        <time>2008-10-20T23:48:15Z</time>
      </trkpt>
      <trkpt lat="48.45515" lon="6.90647">
        <ele>412.289001</ele>
        <time>2008-10-20T23:48:28Z</time>
      </trkpt>
      <trkpt lat="48.45511" lon="6.9062">
        <ele>412.778015</ele>
        <time>2008-10-20T23:48:34Z</time>
      </trkpt>
      <trkpt lat="48.45505" lon="6.90602">
        <ele>413.398987</ele>
        <time>2008-10-20T23:48:39Z</time>
      </trkpt>
      <trkpt lat="48.45499" lon="6.90584">
        <ele>414.062012</ele>
        <time>2008-10-20T23:48:44Z</time>
      </trkpt>
      <trkpt lat="48.4548" lon="6.90506">
        <ele>416.721985</ele>
        <time>2008-10-20T23:49:04Z</time>
      </trkpt>
      <trkpt lat="48.45474" lon="6.90451">
        <ele>418.920013</ele>
        <time>2008-10-20T23:49:17Z</time>
      </trkpt>
      <trkpt lat="48.45467" lon="6.90395">
        <ele>421.855011</ele>
        <time>2008-10-20T23:49:31Z</time>
      </trkpt>
      <trkpt lat="48.45474" lon="6.90336">
        <ele>424.26001</ele>
        <time>2008-10-20T23:49:45Z</time>
      </trkpt>
      <trkpt lat="48.45482" lon="6.9029">
        <ele>426.19101</ele>
        <time>2008-10-20T23:49:56Z</time>
      </trkpt>
      <trkpt lat="48.45469" lon="6.90223">
        <ele>428.548004</ele>
        <time>2008-10-20T23:50:13Z</time>
      </trkpt>
      <trkpt lat="48.45461" lon="6.90159">
        <ele>430.731995</ele>
        <time>2008-10-20T23:50:28Z</time>
      </trkpt>
      <trkpt lat="48.45462" lon="6.90144">
        <ele>431.247009</ele>
        <time>2008-10-20T23:50:32Z</time>
      </trkpt>
      <trkpt lat="48.45466" lon="6.90136">
        <ele>431.97699</ele>
        <time>2008-10-20T23:50:34Z</time>
      </trkpt>
      <trkpt lat="48.4546" lon="6.9013">
        <ele>432.501007</ele>
        <time>2008-10-20T23:50:36Z</time>
      </trkpt>
      <trkpt lat="48.45438" lon="6.90103">
        <ele>433.60199</ele>
        <time>2008-10-20T23:50:47Z</time>
      </trkpt>
      <trkpt lat="48.45406" lon="6.90065">
        <ele>433.696014</ele>
        <time>2008-10-20T23:51:01Z</time>
      </trkpt>
      <trkpt lat="48.45379" lon="6.90004">
        <ele>434.548004</ele>
        <time>2008-10-20T23:51:19Z</time>
      </trkpt>
      <trkpt lat="48.45373" lon="6.89931">
        <ele>436.928986</ele>
        <time>2008-10-20T23:51:36Z</time>
      </trkpt>
      <trkpt lat="48.4539" lon="6.89871">
        <ele>441.367004</ele>
        <time>2008-10-20T23:51:52Z</time>
      </trkpt>
      <trkpt lat="48.4541" lon="6.89814">
        <ele>442.921997</ele>
        <time>2008-10-20T23:52:07Z</time>
      </trkpt>
      <trkpt lat="48.45415" lon="6.89804">
        <ele>442.812988</ele>
        <time>2008-10-20T23:52:10Z</time>
      </trkpt>
      <trkpt lat="48.45441" lon="6.89778">
        <ele>441.851013</ele>
        <time>2008-10-20T23:52:21Z</time>
      </trkpt>
      <trkpt lat="48.45533" lon="6.89757">
        <ele>439.786987</ele>
        <time>2008-10-20T23:52:55Z</time>
      </trkpt>
      <trkpt lat="48.4562" lon="6.89743">
        <ele>436.105988</ele>
        <time>2008-10-20T23:53:26Z</time>
      </trkpt>
      <trkpt lat="48.45654" lon="6.89733">
        <ele>434.325989</ele>
        <time>2008-10-20T23:53:38Z</time>
      </trkpt>
      <trkpt lat="48.45661" lon="6.8973">
        <ele>434.417999</ele>
        <time>2008-10-20T23:53:41Z</time>
      </trkpt>
      <trkpt lat="48.4569" lon="6.89696">
        <ele>433.096985</ele>
        <time>2008-10-20T23:53:54Z</time>
      </trkpt>
      <trkpt lat="48.45709" lon="6.89652">
        <ele>431.721985</ele>
        <time>2008-10-20T23:54:07Z</time>
      </trkpt>
      <trkpt lat="48.45723" lon="6.89575">
        <ele>431.18399</ele>
        <time>2008-10-20T23:54:26Z</time>
      </trkpt>
      <trkpt lat="48.45729" lon="6.89538">
        <ele>430.880005</ele>
        <time>2008-10-20T23:54:35Z</time>
      </trkpt>
      <trkpt lat="48.45747" lon="6.89443">
        <ele>432.091003</ele>
        <time>2008-10-20T23:54:58Z</time>
      </trkpt>
      <trkpt lat="48.45751" lon="6.89425">
        <ele>432.589996</ele>
        <time>2008-10-20T23:55:03Z</time>
      </trkpt>
      <trkpt lat="48.45765" lon="6.8938">
        <ele>434.507996</ele>
        <time>2008-10-20T23:55:15Z</time>
      </trkpt>
      <trkpt lat="48.45768" lon="6.89367">
        <ele>435.001007</ele>
        <time>2008-10-20T23:55:18Z</time>
      </trkpt>
      <trkpt lat="48.45785" lon="6.89263">
        <ele>437.420013</ele>
        <time>2008-10-20T23:55:43Z</time>
      </trkpt>
      <trkpt lat="48.45803" lon="6.89186">
        <ele>437.761993</ele>
        <time>2008-10-20T23:56:03Z</time>
      </trkpt>
      <trkpt lat="48.45808" lon="6.89134">
        <ele>436.838989</ele>
        <time>2008-10-20T23:56:15Z</time>
      </trkpt>
      <trkpt lat="48.45808" lon="6.89119">
        <ele>436.819</ele>
        <time>2008-10-20T23:56:19Z</time>
      </trkpt>
      <trkpt lat="48.45817" lon="6.89055">
        <ele>436.829987</ele>
        <time>2008-10-20T23:56:34Z</time>
      </trkpt>
      <trkpt lat="48.45827" lon="6.89034">
        <ele>436.839996</ele>
        <time>2008-10-20T23:56:41Z</time>
      </trkpt>
      <trkpt lat="48.45842" lon="6.89017">
        <ele>436.945007</ele>
        <time>2008-10-20T23:56:47Z</time>
      </trkpt>
      <trkpt lat="48.4587" lon="6.88976">
        <ele>437.862</ele>
        <time>2008-10-20T23:57:01Z</time>
      </trkpt>
      <trkpt lat="48.45881" lon="6.88961">
        <ele>438.359985</ele>
        <time>2008-10-20T23:57:07Z</time>
      </trkpt>
      <trkpt lat="48.45908" lon="6.8892">
        <ele>439.630005</ele>
        <time>2008-10-20T23:57:21Z</time>
      </trkpt>
      <trkpt lat="48.45933" lon="6.88875">
        <ele>438.071991</ele>
        <time>2008-10-20T23:57:34Z</time>
      </trkpt>
      <trkpt lat="48.45941" lon="6.88863">
        <ele>437.795013</ele>
        <time>2008-10-20T23:57:39Z</time>
      </trkpt>
      <trkpt lat="48.45964" lon="6.8883">
        <ele>437.372009</ele>
        <time>2008-10-20T23:57:50Z</time>
      </trkpt>
      <trkpt lat="48.45988" lon="6.88802">
        <ele>436.868011</ele>
        <time>2008-10-20T23:58:01Z</time>
      </trkpt>
      <trkpt lat="48.46024" lon="6.88775">
        <ele>437.648987</ele>
        <time>2008-10-20T23:58:15Z</time>
      </trkpt>
      <trkpt lat="48.46059" lon="6.88752">
        <ele>437.503998</ele>
        <time>2008-10-20T23:58:29Z</time>
      </trkpt>
      <trkpt lat="48.46067" lon="6.88748">
        <ele>436.774994</ele>
        <time>2008-10-20T23:58:32Z</time>
      </trkpt>
      <trkpt lat="48.46107" lon="6.88732">
        <ele>434.235992</ele>
        <time>2008-10-20T23:58:47Z</time>
      </trkpt>
      <trkpt lat="48.46137" lon="6.88712">
        <ele>431.897003</ele>
        <time>2008-10-20T23:58:58Z</time>
      </trkpt>
      <trkpt lat="48.46157" lon="6.88687">
        <ele>430.222992</ele>
        <time>2008-10-20T23:59:08Z</time>
      </trkpt>
      <trkpt lat="48.4617" lon="6.88669">
        <ele>429.095001</ele>
        <time>2008-10-20T23:59:14Z</time>
      </trkpt>
      <trkpt lat="48.46227" lon="6.88605">
        <ele>427.062012</ele>
        <time>2008-10-20T23:59:39Z</time>
      </trkpt>
      <trkpt lat="48.46234" lon="6.88601">
        <ele>426.427002</ele>
        <time>2008-10-20T23:59:42Z</time>
      </trkpt>
      <trkpt lat="48.46242" lon="6.88611">
        <ele>425.937988</ele>
        <time>2008-10-20T23:59:46Z</time>
      </trkpt>
      <trkpt lat="48.46244" lon="6.88618">
        <ele>425.371002</ele>
        <time>2008-10-20T23:59:48Z</time>
      </trkpt>
      <trkpt lat="48.46249" lon="6.88628">
        <ele>425.054993</ele>
        <time>2008-10-20T23:59:51Z</time>
      </trkpt>
      <trkpt lat="48.46252" lon="6.88631">
        <ele>424.585999</ele>
        <time>2008-10-20T23:59:52Z</time>
      </trkpt>
      <trkpt lat="48.46265" lon="6.88653">
        <ele>423.709991</ele>
        <time>2008-10-20T23:59:59Z</time>
      </trkpt>
      <trkpt lat="48.46279" lon="6.88659">
        <ele>423.873993</ele>
        <time>2008-10-21T00:00:04Z</time>
      </trkpt>
      <trkpt lat="48.46289" lon="6.88665">
        <ele>424.272003</ele>
        <time>2008-10-21T00:00:08Z</time>
      </trkpt>
      <trkpt lat="48.46289" lon="6.88665">
        <ele>424.372009</ele>
        <time>2008-10-21T00:00:08Z</time>
      </trkpt>
      <trkpt lat="48.46296" lon="6.88675">
        <ele>424.330994</ele>
        <time>2008-10-21T00:00:12Z</time>
      </trkpt>
      <trkpt lat="48.46313" lon="6.88709">
        <ele>423.480988</ele>
        <time>2008-10-21T00:00:22Z</time>
      </trkpt>
      <trkpt lat="48.46314" lon="6.88712">
        <ele>423.308014</ele>
        <time>2008-10-21T00:00:23Z</time>
      </trkpt>
      <trkpt lat="48.46333" lon="6.88754">
        <ele>424.010986</ele>
        <time>2008-10-21T00:00:35Z</time>
      </trkpt>
      <trkpt lat="48.46344" lon="6.888">
        <ele>424.757996</ele>
        <time>2008-10-21T00:00:46Z</time>
      </trkpt>
      <trkpt lat="48.46354" lon="6.8883">
        <ele>424.88501</ele>
        <time>2008-10-21T00:00:54Z</time>
      </trkpt>
      <trkpt lat="48.4638" lon="6.88887">
        <ele>425.02301</ele>
        <time>2008-10-21T00:01:11Z</time>
      </trkpt>
      <trkpt lat="48.46383" lon="6.88891">
        <ele>425.324005</ele>
        <time>2008-10-21T00:01:12Z</time>
      </trkpt>
      <trkpt lat="48.46412" lon="6.88945">
        <ele>426.675995</ele>
        <time>2008-10-21T00:01:29Z</time>
      </trkpt>
      <trkpt lat="48.46438" lon="6.88982">
        <ele>428.519012</ele>
        <time>2008-10-21T00:01:42Z</time>
      </trkpt>
      <trkpt lat="48.46446" lon="6.88988">
        <ele>428.998993</ele>
        <time>2008-10-21T00:01:45Z</time>
      </trkpt>
      <trkpt lat="48.46437" lon="6.89018">
        <ele>427.790985</ele>
        <time>2008-10-21T00:01:52Z</time>
      </trkpt>
      <trkpt lat="48.4643" lon="6.89048">
        <ele>426.812012</ele>
        <time>2008-10-21T00:02:00Z</time>
      </trkpt>
      <trkpt lat="48.46422" lon="6.89069">
        <ele>425.201996</ele>
        <time>2008-10-21T00:02:06Z</time>
      </trkpt>
      <trkpt lat="48.46421" lon="6.89073">
        <ele>424.695007</ele>
        <time>2008-10-21T00:02:07Z</time>
      </trkpt>
      <trkpt lat="48.46409" lon="6.89098">
        <ele>421.829987</ele>
        <time>2008-10-21T00:02:14Z</time>
      </trkpt>
      <trkpt lat="48.46395" lon="6.89117">
        <ele>419.014008</ele>
        <time>2008-10-21T00:02:21Z</time>
      </trkpt>
      <trkpt lat="48.46395" lon="6.89148">
        <ele>418.388</ele>
        <time>2008-10-21T00:02:28Z</time>
      </trkpt>
      <trkpt lat="48.46422" lon="6.8919">
        <ele>420.528015</ele>
        <time>2008-10-21T00:02:42Z</time>
      </trkpt>
      <trkpt lat="48.46423" lon="6.89197">
        <ele>420.459015</ele>
        <time>2008-10-21T00:02:44Z</time>
      </trkpt>
      <trkpt lat="48.46448" lon="6.89226">
        <ele>421.044006</ele>
        <time>2008-10-21T00:02:55Z</time>
      </trkpt>
      <trkpt lat="48.46457" lon="6.89232">
        <ele>421.451996</ele>
        <time>2008-10-21T00:02:59Z</time>
      </trkpt>
      <trkpt lat="48.4646" lon="6.89244">
        <ele>420.858002</ele>
        <time>2008-10-21T00:03:02Z</time>
      </trkpt>
      <trkpt lat="48.46457" lon="6.89277">
        <ele>419.812988</ele>
        <time>2008-10-21T00:03:10Z</time>
      </trkpt>
      <trkpt lat="48.46452" lon="6.89297">
        <ele>419.390991</ele>
        <time>2008-10-21T00:03:15Z</time>
      </trkpt>
      <trkpt lat="48.46451" lon="6.89305">
        <ele>419.322998</ele>
        <time>2008-10-21T00:03:17Z</time>
      </trkpt>
      <trkpt lat="48.46449" lon="6.89319">
        <ele>418.822998</ele>
        <time>2008-10-21T00:03:20Z</time>
      </trkpt>
      <trkpt lat="48.46436" lon="6.89373">
        <ele>417.403992</ele>
        <time>2008-10-21T00:03:34Z</time>
      </trkpt>
      <trkpt lat="48.46421" lon="6.89434">
        <ele>416.727997</ele>
        <time>2008-10-21T00:03:49Z</time>
      </trkpt>
      <trkpt lat="48.46412" lon="6.89475">
        <ele>415.806</ele>
        <time>2008-10-21T00:04:00Z</time>
      </trkpt>
      <trkpt lat="48.46398" lon="6.89525">
        <ele>411.964996</ele>
        <time>2008-10-21T00:04:12Z</time>
      </trkpt>
      <trkpt lat="48.46391" lon="6.89555">
        <ele>409.950012</ele>
        <time>2008-10-21T00:04:20Z</time>
      </trkpt>
      <trkpt lat="48.46388" lon="6.89571">
        <ele>407.812012</ele>
        <time>2008-10-21T00:04:24Z</time>
      </trkpt>
      <trkpt lat="48.46401" lon="6.89587">
        <ele>406.648987</ele>
        <time>2008-10-21T00:04:30Z</time>
      </trkpt>
      <trkpt lat="48.46423" lon="6.89584">
        <ele>404.158997</ele>
        <time>2008-10-21T00:04:38Z</time>
      </trkpt>
      <trkpt lat="48.4643" lon="6.89577">
        <ele>403.867004</ele>
        <time>2008-10-21T00:04:41Z</time>
      </trkpt>
      <trkpt lat="48.46433" lon="6.89571">
        <ele>403.919006</ele>
        <time>2008-10-21T00:04:43Z</time>
      </trkpt>
      <trkpt lat="48.46438" lon="6.89557">
        <ele>403.595001</ele>
        <time>2008-10-21T00:04:46Z</time>
      </trkpt>
      <trkpt lat="48.46465" lon="6.89535">
        <ele>398.727997</ele>
        <time>2008-10-21T00:04:57Z</time>
      </trkpt>
      <trkpt lat="48.46477" lon="6.89512">
        <ele>397.585999</ele>
        <time>2008-10-21T00:05:04Z</time>
      </trkpt>
      <trkpt lat="48.4648" lon="6.89509">
        <ele>396.917999</ele>
        <time>2008-10-21T00:05:06Z</time>
      </trkpt>
      <trkpt lat="48.46488" lon="6.89495">
        <ele>396.718994</ele>
        <time>2008-10-21T00:05:10Z</time>
      </trkpt>
      <trkpt lat="48.46494" lon="6.89489">
        <ele>395.860992</ele>
        <time>2008-10-21T00:05:13Z</time>
      </trkpt>
      <trkpt lat="48.46504" lon="6.89469">
        <ele>394.985992</ele>
        <time>2008-10-21T00:05:19Z</time>
      </trkpt>
      <trkpt lat="48.46523" lon="6.89442">
        <ele>395.394012</ele>
        <time>2008-10-21T00:05:28Z</time>
      </trkpt>
      <trkpt lat="48.46541" lon="6.89407">
        <ele>395.894989</ele>
        <time>2008-10-21T00:05:39Z</time>
      </trkpt>
      <trkpt lat="48.46566" lon="6.89361">
        <ele>395.104004</ele>
        <time>2008-10-21T00:05:53Z</time>
      </trkpt>
      <trkpt lat="48.46571" lon="6.8935">
        <ele>395.390015</ele>
        <time>2008-10-21T00:05:56Z</time>
      </trkpt>
      <trkpt lat="48.46589" lon="6.89362">
        <ele>394.511993</ele>
        <time>2008-10-21T00:06:03Z</time>
      </trkpt>
      <trkpt lat="48.46589" lon="6.89366">
        <ele>394.774994</ele>
        <time>2008-10-21T00:06:04Z</time>
      </trkpt>
      <trkpt lat="48.46589" lon="6.89397">
        <ele>395.320007</ele>
        <time>2008-10-21T00:06:11Z</time>
      </trkpt>
      <trkpt lat="48.4659" lon="6.89438">
        <ele>395</ele>
        <time>2008-10-21T00:06:21Z</time>
      </trkpt>
      <trkpt lat="48.4659" lon="6.89442">
        <ele>395.265015</ele>
        <time>2008-10-21T00:06:22Z</time>
      </trkpt>
      <trkpt lat="48.46593" lon="6.89477">
        <ele>394.951996</ele>
        <time>2008-10-21T00:06:30Z</time>
      </trkpt>
      <trkpt lat="48.4659" lon="6.89519">
        <ele>394.526001</ele>
        <time>2008-10-21T00:06:40Z</time>
      </trkpt>
      <trkpt lat="48.46586" lon="6.89539">
        <ele>394.265015</ele>
        <time>2008-10-21T00:06:45Z</time>
      </trkpt>
      <trkpt lat="48.46571" lon="6.89575">
        <ele>394.110992</ele>
        <time>2008-10-21T00:06:55Z</time>
      </trkpt>
      <trkpt lat="48.4657" lon="6.89579">
        <ele>394.035004</ele>
        <time>2008-10-21T00:06:56Z</time>
      </trkpt>
      <trkpt lat="48.46566" lon="6.89603">
        <ele>394.096985</ele>
        <time>2008-10-21T00:07:02Z</time>
      </trkpt>
      <trkpt lat="48.46563" lon="6.89624">
        <ele>394.364014</ele>
        <time>2008-10-21T00:07:07Z</time>
      </trkpt>
      <trkpt lat="48.46555" lon="6.89656">
        <ele>394.411987</ele>
        <time>2008-10-21T00:07:15Z</time>
      </trkpt>
      <trkpt lat="48.46555" lon="6.89659">
        <ele>394.733002</ele>
        <time>2008-10-21T00:07:16Z</time>
      </trkpt>
      <trkpt lat="48.4655" lon="6.89683">
        <ele>394.846008</ele>
        <time>2008-10-21T00:07:22Z</time>
      </trkpt>
      <trkpt lat="48.46548" lon="6.89688">
        <ele>394.890991</ele>
        <time>2008-10-21T00:07:24Z</time>
      </trkpt>
      <trkpt lat="48.46543" lon="6.89702">
        <ele>394.98999</ele>
        <time>2008-10-21T00:07:27Z</time>
      </trkpt>
      <trkpt lat="48.46534" lon="6.89721">
        <ele>394.812988</ele>
        <time>2008-10-21T00:07:33Z</time>
      </trkpt>
      <trkpt lat="48.46523" lon="6.89741">
        <ele>394.509003</ele>
        <time>2008-10-21T00:07:39Z</time>
      </trkpt>
      <trkpt lat="48.46508" lon="6.89771">
        <ele>394.747009</ele>
        <time>2008-10-21T00:07:48Z</time>
      </trkpt>
      <trkpt lat="48.46501" lon="6.89782">
        <ele>394.36499</ele>
        <time>2008-10-21T00:07:52Z</time>
      </trkpt>
      <trkpt lat="48.46498" lon="6.898">
        <ele>394.891998</ele>
        <time>2008-10-21T00:07:56Z</time>
      </trkpt>
      <trkpt lat="48.46482" lon="6.89835">
        <ele>394.894012</ele>
        <time>2008-10-21T00:08:06Z</time>
      </trkpt>
      <trkpt lat="48.46472" lon="6.89862">
        <ele>395.296997</ele>
        <time>2008-10-21T00:08:14Z</time>
      </trkpt>
      <trkpt lat="48.46461" lon="6.89874">
        <ele>394.678986</ele>
        <time>2008-10-21T00:08:19Z</time>
      </trkpt>
      <trkpt lat="48.46438" lon="6.89911">
        <ele>395.381989</ele>
        <time>2008-10-21T00:08:31Z</time>
      </trkpt>
      <trkpt lat="48.46417" lon="6.89953">
        <ele>396.058014</ele>
        <time>2008-10-21T00:08:43Z</time>
      </trkpt>
      <trkpt lat="48.46411" lon="6.9">
        <ele>397.424988</ele>
        <time>2008-10-21T00:08:55Z</time>
      </trkpt>
      <trkpt lat="48.46404" lon="6.90042">
        <ele>398.25</ele>
        <time>2008-10-21T00:09:05Z</time>
      </trkpt>
      <trkpt lat="48.4641" lon="6.90058">
        <ele>398.472992</ele>
        <time>2008-10-21T00:09:09Z</time>
      </trkpt>
      <trkpt lat="48.46407" lon="6.90073">
        <ele>397.588013</ele>
        <time>2008-10-21T00:09:13Z</time>
      </trkpt>
      <trkpt lat="48.46401" lon="6.90084">
        <ele>395.537994</ele>
        <time>2008-10-21T00:09:16Z</time>
      </trkpt>
      <trkpt lat="48.46405" lon="6.90117">
        <ele>396.487</ele>
        <time>2008-10-21T00:09:24Z</time>
      </trkpt>
      <trkpt lat="48.46409" lon="6.90122">
        <ele>396.920013</ele>
        <time>2008-10-21T00:09:26Z</time>
      </trkpt>
      <trkpt lat="48.4641" lon="6.90137">
        <ele>397.458008</ele>
        <time>2008-10-21T00:09:30Z</time>
      </trkpt>
      <trkpt lat="48.4642" lon="6.90183">
        <ele>397.263</ele>
        <time>2008-10-21T00:09:41Z</time>
      </trkpt>
      <trkpt lat="48.46423" lon="6.90189">
        <ele>397.381012</ele>
        <time>2008-10-21T00:09:43Z</time>
      </trkpt>
      <trkpt lat="48.46431" lon="6.90227">
        <ele>398.931</ele>
        <time>2008-10-21T00:09:53Z</time>
      </trkpt>
      <trkpt lat="48.4644" lon="6.90249">
        <ele>399.820007</ele>
        <time>2008-10-21T00:09:59Z</time>
      </trkpt>
      <trkpt lat="48.46442" lon="6.90247">
        <ele>399.419006</ele>
        <time>2008-10-21T00:10:00Z</time>
      </trkpt>
      <trkpt lat="48.4643" lon="6.90275">
        <ele>399.53299</ele>
        <time>2008-10-21T00:10:08Z</time>
      </trkpt>
      <trkpt lat="48.46429" lon="6.90279">
        <ele>399.683014</ele>
        <time>2008-10-21T00:10:09Z</time>
      </trkpt>
      <trkpt lat="48.46428" lon="6.90293">
        <ele>399.755005</ele>
        <time>2008-10-21T00:10:12Z</time>
      </trkpt>
      <trkpt lat="48.46435" lon="6.9031">
        <ele>400.494995</ele>
        <time>2008-10-21T00:10:17Z</time>
      </trkpt>
      <trkpt lat="48.46432" lon="6.90346">
        <ele>400.026001</ele>
        <time>2008-10-21T00:10:26Z</time>
      </trkpt>
      <trkpt lat="48.46433" lon="6.90352">
        <ele>400.071991</ele>
        <time>2008-10-21T00:10:27Z</time>
      </trkpt>
      <trkpt lat="48.46441" lon="6.9037">
        <ele>401.365997</ele>
        <time>2008-10-21T00:10:32Z</time>
      </trkpt>
      <trkpt lat="48.46442" lon="6.90367">
        <ele>400.869995</ele>
        <time>2008-10-21T00:10:33Z</time>
      </trkpt>
      <trkpt lat="48.46446" lon="6.90357">
        <ele>401.140015</ele>
        <time>2008-10-21T00:10:36Z</time>
      </trkpt>
      <trkpt lat="48.46468" lon="6.90308">
        <ele>399.710999</ele>
        <time>2008-10-21T00:10:50Z</time>
      </trkpt>
      <trkpt lat="48.46488" lon="6.90277">
        <ele>400.667999</ele>
        <time>2008-10-21T00:11:00Z</time>
      </trkpt>
      <trkpt lat="48.46503" lon="6.90246">
        <ele>402.256012</ele>
        <time>2008-10-21T00:11:09Z</time>
      </trkpt>
      <trkpt lat="48.46519" lon="6.90207">
        <ele>403.462006</ele>
        <time>2008-10-21T00:11:20Z</time>
      </trkpt>
      <trkpt lat="48.46528" lon="6.90194">
        <ele>404.641998</ele>
        <time>2008-10-21T00:11:25Z</time>
      </trkpt>
      <trkpt lat="48.46552" lon="6.90183">
        <ele>406.028992</ele>
        <time>2008-10-21T00:11:33Z</time>
      </trkpt>
      <trkpt lat="48.46563" lon="6.90183">
        <ele>406.319</ele>
        <time>2008-10-21T00:11:38Z</time>
      </trkpt>
      <trkpt lat="48.46596" lon="6.9017">
        <ele>406.320007</ele>
        <time>2008-10-21T00:11:50Z</time>
      </trkpt>
      <trkpt lat="48.46623" lon="6.9014">
        <ele>407.855011</ele>
        <time>2008-10-21T00:12:02Z</time>
      </trkpt>
      <trkpt lat="48.46643" lon="6.90101">
        <ele>409.520996</ele>
        <time>2008-10-21T00:12:14Z</time>
      </trkpt>
      <trkpt lat="48.46652" lon="6.90083">
        <ele>410.502991</ele>
        <time>2008-10-21T00:12:19Z</time>
      </trkpt>
      <trkpt lat="48.46679" lon="6.90055">
        <ele>410.085999</ele>
        <time>2008-10-21T00:12:31Z</time>
      </trkpt>
      <trkpt lat="48.467" lon="6.90035">
        <ele>411.136993</ele>
        <time>2008-10-21T00:12:40Z</time>
      </trkpt>
      <trkpt lat="48.46723" lon="6.90012">
        <ele>411.96701</ele>
        <time>2008-10-21T00:12:50Z</time>
      </trkpt>
      <trkpt lat="48.46754" lon="6.90001">
        <ele>412.048004</ele>
        <time>2008-10-21T00:13:01Z</time>
      </trkpt>
      <trkpt lat="48.46775" lon="6.89976">
        <ele>412.73999</ele>
        <time>2008-10-21T00:13:10Z</time>
      </trkpt>
      <trkpt lat="48.4678" lon="6.89977">
        <ele>412.546997</ele>
        <time>2008-10-21T00:13:12Z</time>
      </trkpt>
      <trkpt lat="48.46779" lon="6.89978">
        <ele>412.320007</ele>
        <time>2008-10-21T00:13:13Z</time>
      </trkpt>
      <trkpt lat="48.46783" lon="6.8998">
        <ele>410.990997</ele>
        <time>2008-10-21T00:13:14Z</time>
      </trkpt>
      <trkpt lat="48.46804" lon="6.89962">
        <ele>409.049988</ele>
        <time>2008-10-21T00:13:23Z</time>
      </trkpt>
      <trkpt lat="48.46811" lon="6.89949">
        <ele>409.502991</ele>
        <time>2008-10-21T00:13:27Z</time>
      </trkpt>
      <trkpt lat="48.46822" lon="6.89931">
        <ele>410.255005</ele>
        <time>2008-10-21T00:13:33Z</time>
      </trkpt>
      <trkpt lat="48.46832" lon="6.89927">
        <ele>408.639008</ele>
        <time>2008-10-21T00:13:36Z</time>
      </trkpt>
      <trkpt lat="48.46844" lon="6.89917">
        <ele>406.615997</ele>
        <time>2008-10-21T00:13:41Z</time>
      </trkpt>
      <trkpt lat="48.4685" lon="6.89896">
        <ele>406.606995</ele>
        <time>2008-10-21T00:13:47Z</time>
      </trkpt>
      <trkpt lat="48.46869" lon="6.89855">
        <ele>404.636993</ele>
        <time>2008-10-21T00:13:59Z</time>
      </trkpt>
      <trkpt lat="48.46873" lon="6.8985">
        <ele>403.437012</ele>
        <time>2008-10-21T00:14:01Z</time>
      </trkpt>
      <trkpt lat="48.46878" lon="6.89813">
        <ele>401.938995</ele>
        <time>2008-10-21T00:14:10Z</time>
      </trkpt>
      <trkpt lat="48.4688" lon="6.89806">
        <ele>400.572998</ele>
        <time>2008-10-21T00:14:11Z</time>
      </trkpt>
      <trkpt lat="48.46888" lon="6.89791">
        <ele>398.92099</ele>
        <time>2008-10-21T00:14:16Z</time>
      </trkpt>
      <trkpt lat="48.46893" lon="6.8977">
        <ele>397.884003</ele>
        <time>2008-10-21T00:14:21Z</time>
      </trkpt>
      <trkpt lat="48.46904" lon="6.89746">
        <ele>395.483002</ele>
        <time>2008-10-21T00:14:28Z</time>
      </trkpt>
      <trkpt lat="48.46906" lon="6.89745">
        <ele>395.27301</ele>
        <time>2008-10-21T00:14:29Z</time>
      </trkpt>
      <trkpt lat="48.46914" lon="6.89735">
        <ele>394.494995</ele>
        <time>2008-10-21T00:14:33Z</time>
      </trkpt>
      <trkpt lat="48.46926" lon="6.89712">
        <ele>396.834015</ele>
        <time>2008-10-21T00:14:40Z</time>
      </trkpt>
      <trkpt lat="48.46948" lon="6.89704">
        <ele>396.21701</ele>
        <time>2008-10-21T00:14:48Z</time>
      </trkpt>
      <trkpt lat="48.46973" lon="6.89693">
        <ele>393.90799</ele>
        <time>2008-10-21T00:14:57Z</time>
      </trkpt>
      <trkpt lat="48.46999" lon="6.89673">
        <ele>394.89801</ele>
        <time>2008-10-21T00:15:08Z</time>
      </trkpt>
      <trkpt lat="48.47009" lon="6.89665">
        <ele>394.873993</ele>
        <time>2008-10-21T00:15:12Z</time>
      </trkpt>
      <trkpt lat="48.47021" lon="6.8964">
        <ele>396.053986</ele>
        <time>2008-10-21T00:15:19Z</time>
      </trkpt>
      <trkpt lat="48.47037" lon="6.89633">
        <ele>395</ele>
        <time>2008-10-21T00:15:25Z</time>
      </trkpt>
      <trkpt lat="48.47041" lon="6.8963">
        <ele>394.946014</ele>
        <time>2008-10-21T00:15:26Z</time>
      </trkpt>
      <trkpt lat="48.47043" lon="6.89625">
        <ele>395.612</ele>
        <time>2008-10-21T00:15:28Z</time>
      </trkpt>
      <trkpt lat="48.47058" lon="6.89612">
        <ele>395.992004</ele>
        <time>2008-10-21T00:15:34Z</time>
      </trkpt>
      <trkpt lat="48.47064" lon="6.89604">
        <ele>395.752014</ele>
        <time>2008-10-21T00:15:37Z</time>
      </trkpt>
      <trkpt lat="48.47093" lon="6.89589">
        <ele>393.786987</ele>
        <time>2008-10-21T00:15:48Z</time>
      </trkpt>
      <trkpt lat="48.471" lon="6.89586">
        <ele>393.963989</ele>
        <time>2008-10-21T00:15:50Z</time>
      </trkpt>
      <trkpt lat="48.47115" lon="6.89608">
        <ele>393.289001</ele>
        <time>2008-10-21T00:15:58Z</time>
      </trkpt>
      <trkpt lat="48.47117" lon="6.89646">
        <ele>395.080994</ele>
        <time>2008-10-21T00:16:07Z</time>
      </trkpt>
      <trkpt lat="48.47115" lon="6.89655">
        <ele>395.570007</ele>
        <time>2008-10-21T00:16:09Z</time>
      </trkpt>
      <trkpt lat="48.47111" lon="6.89684">
        <ele>394.662994</ele>
        <time>2008-10-21T00:16:17Z</time>
      </trkpt>
      <trkpt lat="48.47105" lon="6.89697">
        <ele>393.743988</ele>
        <time>2008-10-21T00:16:20Z</time>
      </trkpt>
      <trkpt lat="48.47098" lon="6.89709">
        <ele>393.321991</ele>
        <time>2008-10-21T00:16:24Z</time>
      </trkpt>
      <trkpt lat="48.47096" lon="6.89716">
        <ele>393.622986</ele>
        <time>2008-10-21T00:16:26Z</time>
      </trkpt>
      <trkpt lat="48.47093" lon="6.89721">
        <ele>393.518005</ele>
        <time>2008-10-21T00:16:27Z</time>
      </trkpt>
      <trkpt lat="48.47084" lon="6.89767">
        <ele>394.803009</ele>
        <time>2008-10-21T00:16:39Z</time>
      </trkpt>
      <trkpt lat="48.47076" lon="6.89814">
        <ele>395.386993</ele>
        <time>2008-10-21T00:16:50Z</time>
      </trkpt>
      <trkpt lat="48.47067" lon="6.89863">
        <ele>395.479004</ele>
        <time>2008-10-21T00:17:03Z</time>
      </trkpt>
      <trkpt lat="48.47062" lon="6.89894">
        <ele>395.553009</ele>
        <time>2008-10-21T00:17:10Z</time>
      </trkpt>
      <trkpt lat="48.4706" lon="6.89924">
        <ele>394.821991</ele>
        <time>2008-10-21T00:17:17Z</time>
      </trkpt>
      <trkpt lat="48.47055" lon="6.89972">
        <ele>396.498993</ele>
        <time>2008-10-21T00:17:29Z</time>
      </trkpt>
      <trkpt lat="48.47054" lon="6.89991">
        <ele>396.403992</ele>
        <time>2008-10-21T00:17:33Z</time>
      </trkpt>
      <trkpt lat="48.47044" lon="6.90038">
        <ele>396.04599</ele>
        <time>2008-10-21T00:17:45Z</time>
      </trkpt>
      <trkpt lat="48.47063" lon="6.90078">
        <ele>396.300995</ele>
        <time>2008-10-21T00:17:57Z</time>
      </trkpt>
      <trkpt lat="48.47063" lon="6.9012">
        <ele>394.881012</ele>
        <time>2008-10-21T00:18:07Z</time>
      </trkpt>
      <trkpt lat="48.47058" lon="6.90181">
        <ele>393.627991</ele>
        <time>2008-10-21T00:18:21Z</time>
      </trkpt>
      <trkpt lat="48.47038" lon="6.90212">
        <ele>393.634003</ele>
        <time>2008-10-21T00:18:32Z</time>
      </trkpt>
      <trkpt lat="48.47024" lon="6.90248">
        <ele>396.553986</ele>
        <time>2008-10-21T00:18:41Z</time>
      </trkpt>
      <trkpt lat="48.47001" lon="6.90297">
        <ele>401.190002</ele>
        <time>2008-10-21T00:18:56Z</time>
      </trkpt>
      <trkpt lat="48.46989" lon="6.90312">
        <ele>401.886993</ele>
        <time>2008-10-21T00:19:01Z</time>
      </trkpt>
      <trkpt lat="48.46985" lon="6.90324">
        <ele>402.302002</ele>
        <time>2008-10-21T00:19:04Z</time>
      </trkpt>
      <trkpt lat="48.46962" lon="6.90386">
        <ele>403.274994</ele>
        <time>2008-10-21T00:19:21Z</time>
      </trkpt>
      <trkpt lat="48.46956" lon="6.90401">
        <ele>403.713989</ele>
        <time>2008-10-21T00:19:25Z</time>
      </trkpt>
      <trkpt lat="48.46963" lon="6.90465">
        <ele>404.087006</ele>
        <time>2008-10-21T00:19:41Z</time>
      </trkpt>
      <trkpt lat="48.46981" lon="6.90498">
        <ele>405.291992</ele>
        <time>2008-10-21T00:19:51Z</time>
      </trkpt>
      <trkpt lat="48.47008" lon="6.90552">
        <ele>407.473999</ele>
        <time>2008-10-21T00:20:07Z</time>
      </trkpt>
      <trkpt lat="48.47028" lon="6.90601">
        <ele>409.540009</ele>
        <time>2008-10-21T00:20:21Z</time>
      </trkpt>
      <trkpt lat="48.47036" lon="6.90627">
        <ele>410.931</ele>
        <time>2008-10-21T00:20:28Z</time>
      </trkpt>
      <trkpt lat="48.4702" lon="6.90647">
        <ele>408.727997</ele>
        <time>2008-10-21T00:20:35Z</time>
      </trkpt>
      <trkpt lat="48.47008" lon="6.9065">
        <ele>406.854004</ele>
        <time>2008-10-21T00:20:39Z</time>
      </trkpt>
      <trkpt lat="48.46998" lon="6.90646">
        <ele>405.279999</ele>
        <time>2008-10-21T00:20:43Z</time>
      </trkpt>
      <trkpt lat="48.46992" lon="6.9064">
        <ele>404.085999</ele>
        <time>2008-10-21T00:20:46Z</time>
      </trkpt>
      <trkpt lat="48.46978" lon="6.90616">
        <ele>401.10199</ele>
        <time>2008-10-21T00:20:53Z</time>
      </trkpt>
      <trkpt lat="48.46975" lon="6.90607">
        <ele>399.96701</ele>
        <time>2008-10-21T00:20:56Z</time>
      </trkpt>
      <trkpt lat="48.4696" lon="6.90585">
        <ele>398.015991</ele>
        <time>2008-10-21T00:21:03Z</time>
      </trkpt>
      <trkpt lat="48.4693" lon="6.90551">
        <ele>396.240997</ele>
        <time>2008-10-21T00:21:16Z</time>
      </trkpt>
      <trkpt lat="48.46925" lon="6.90537">
        <ele>395.348999</ele>
        <time>2008-10-21T00:21:20Z</time>
      </trkpt>
      <trkpt lat="48.46919" lon="6.90536">
        <ele>395.606995</ele>
        <time>2008-10-21T00:21:22Z</time>
      </trkpt>
      <trkpt lat="48.46922" lon="6.90538">
        <ele>395.484009</ele>
        <time>2008-10-21T00:21:23Z</time>
      </trkpt>
      <trkpt lat="48.46928" lon="6.90549">
        <ele>396.665009</ele>
        <time>2008-10-21T00:21:27Z</time>
      </trkpt>
      <trkpt lat="48.46933" lon="6.90557">
        <ele>397.671997</ele>
        <time>2008-10-21T00:21:29Z</time>
      </trkpt>
      <trkpt lat="48.46933" lon="6.90556">
        <ele>397.274994</ele>
        <time>2008-10-21T00:21:30Z</time>
      </trkpt>
      <trkpt lat="48.46928" lon="6.90547">
        <ele>396.320007</ele>
        <time>2008-10-21T00:21:32Z</time>
      </trkpt>
      <trkpt lat="48.46919" lon="6.90547">
        <ele>397.954987</ele>
        <time>2008-10-21T00:21:36Z</time>
      </trkpt>
      <trkpt lat="48.46914" lon="6.90549">
        <ele>398.562012</ele>
        <time>2008-10-21T00:21:37Z</time>
      </trkpt>
      <trkpt lat="48.46908" lon="6.90555">
        <ele>400.537994</ele>
        <time>2008-10-21T00:21:40Z</time>
      </trkpt>
      <trkpt lat="48.46901" lon="6.90564">
        <ele>402.304993</ele>
        <time>2008-10-21T00:21:43Z</time>
      </trkpt>
      <trkpt lat="48.46876" lon="6.90572">
        <ele>405.057007</ele>
        <time>2008-10-21T00:21:53Z</time>
      </trkpt>
      <trkpt lat="48.46849" lon="6.9059">
        <ele>408.192993</ele>
        <time>2008-10-21T00:22:03Z</time>
      </trkpt>
      <trkpt lat="48.46828" lon="6.90617">
        <ele>410.154999</ele>
        <time>2008-10-21T00:22:13Z</time>
      </trkpt>
      <trkpt lat="48.46826" lon="6.90622">
        <ele>410.204987</ele>
        <time>2008-10-21T00:22:14Z</time>
      </trkpt>
      <trkpt lat="48.4682" lon="6.9063">
        <ele>410.852997</ele>
        <time>2008-10-21T00:22:17Z</time>
      </trkpt>
      <trkpt lat="48.4681" lon="6.90636">
        <ele>411.596985</ele>
        <time>2008-10-21T00:22:21Z</time>
      </trkpt>
      <trkpt lat="48.46781" lon="6.90657">
        <ele>413.260986</ele>
        <time>2008-10-21T00:22:33Z</time>
      </trkpt>
      <trkpt lat="48.46753" lon="6.90688">
        <ele>415.237</ele>
        <time>2008-10-21T00:22:45Z</time>
      </trkpt>
      <trkpt lat="48.46729" lon="6.90739">
        <ele>417.88501</ele>
        <time>2008-10-21T00:23:00Z</time>
      </trkpt>
      <trkpt lat="48.46708" lon="6.90799">
        <ele>420.485992</ele>
        <time>2008-10-21T00:23:16Z</time>
      </trkpt>
      <trkpt lat="48.46707" lon="6.90801">
        <ele>420.789001</ele>
        <time>2008-10-21T00:23:17Z</time>
      </trkpt>
      <trkpt lat="48.46708" lon="6.90806">
        <ele>421.010986</ele>
        <time>2008-10-21T00:23:18Z</time>
      </trkpt>
      <trkpt lat="48.46708" lon="6.90829">
        <ele>422.649994</ele>
        <time>2008-10-21T00:23:23Z</time>
      </trkpt>
      <trkpt lat="48.46715" lon="6.90879">
        <ele>425.494995</ele>
        <time>2008-10-21T00:23:36Z</time>
      </trkpt>
      <trkpt lat="48.46719" lon="6.90901">
        <ele>426.312988</ele>
        <time>2008-10-21T00:23:41Z</time>
      </trkpt>
      <trkpt lat="48.46713" lon="6.90967">
        <ele>427.239014</ele>
        <time>2008-10-21T00:23:57Z</time>
      </trkpt>
      <trkpt lat="48.46729" lon="6.91029">
        <ele>428.484985</ele>
        <time>2008-10-21T00:24:13Z</time>
      </trkpt>
      <trkpt lat="48.4676" lon="6.91075">
        <ele>428.207001</ele>
        <time>2008-10-21T00:24:28Z</time>
      </trkpt>
      <trkpt lat="48.4678" lon="6.91093">
        <ele>428.330994</ele>
        <time>2008-10-21T00:24:37Z</time>
      </trkpt>
      <trkpt lat="48.4683" lon="6.91146">
        <ele>428.32901</ele>
        <time>2008-10-21T00:24:59Z</time>
      </trkpt>
      <trkpt lat="48.46853" lon="6.91175">
        <ele>427.552002</ele>
        <time>2008-10-21T00:25:09Z</time>
      </trkpt>
      <trkpt lat="48.46866" lon="6.91221">
        <ele>426.860992</ele>
        <time>2008-10-21T00:25:21Z</time>
      </trkpt>
      <trkpt lat="48.46883" lon="6.91254">
        <ele>428.837006</ele>
        <time>2008-10-21T00:25:31Z</time>
      </trkpt>
      <trkpt lat="48.46912" lon="6.91314">
        <ele>431.346985</ele>
        <time>2008-10-21T00:25:49Z</time>
      </trkpt>
      <trkpt lat="48.46921" lon="6.91334">
        <ele>431.936005</ele>
        <time>2008-10-21T00:25:55Z</time>
      </trkpt>
      <trkpt lat="48.46955" lon="6.91384">
        <ele>432.200989</ele>
        <time>2008-10-21T00:26:12Z</time>
      </trkpt>
      <trkpt lat="48.46972" lon="6.91427">
        <ele>432.338989</ele>
        <time>2008-10-21T00:26:24Z</time>
      </trkpt>
      <trkpt lat="48.46971" lon="6.91432">
        <ele>432.007996</ele>
        <time>2008-10-21T00:26:25Z</time>
      </trkpt>
      <trkpt lat="48.46972" lon="6.9145">
        <ele>425.511993</ele>
        <time>2008-10-21T00:26:29Z</time>
      </trkpt>
    </trkseg>
  </trk>
</gpx>